<?xml version="1.0" encoding="UTF-8" standalone="no" ?>
<gpx xmlns="http://www.topografix.com/GPX/1/1" xmlns:xsi="http://www.w3.org/2001/XMLSchema-instance" xsi:schemaLocation="http://www.topografix.com/GPX/1/1 http://www.topografix.com/GPX/1/1/gpx.xsd" version="1.1" creator="VisuGPX - https://www.visugpx.com">
  <metadata>
    <name>Maroc2011 - Merzouga Zagora</name>
    <desc><![CDATA[La trace de Merzouga jusqu\'a Zagora.]]></desc>
  </metadata>
  <trk>
    <name><![CDATA[Merzouga à zagora]]></name>
    <trkseg>
      <trkpt lat="31.1072" lon="-4.0101">
        <ele>661.415</ele>
        <time>2011-04-25T08:35:05Z</time>
      </trkpt>
      <trkpt lat="31.1072" lon="-4.0101">
        <ele>708.402</ele>
        <time>2011-04-25T08:37:08Z</time>
      </trkpt>
      <trkpt lat="31.1072" lon="-4.01006">
        <ele>709.444</ele>
        <time>2011-04-25T08:39:19Z</time>
      </trkpt>
      <trkpt lat="31.10689" lon="-4.01017">
        <ele>708.881</ele>
        <time>2011-04-25T08:40:04Z</time>
      </trkpt>
      <trkpt lat="31.10679" lon="-4.01053">
        <ele>709.074</ele>
        <time>2011-04-25T08:40:14Z</time>
      </trkpt>
      <trkpt lat="31.10854" lon="-4.01535">
        <ele>712.671</ele>
        <time>2011-04-25T08:41:34Z</time>
      </trkpt>
      <trkpt lat="31.10678" lon="-4.0211">
        <ele>712.887</ele>
        <time>2011-04-25T08:42:27Z</time>
      </trkpt>
      <trkpt lat="31.10641" lon="-4.02123">
        <ele>713.396</ele>
        <time>2011-04-25T08:42:38Z</time>
      </trkpt>
      <trkpt lat="31.10521" lon="-4.02067">
        <ele>714.94</ele>
        <time>2011-04-25T08:42:49Z</time>
      </trkpt>
      <trkpt lat="31.10398" lon="-4.02012">
        <ele>710.233</ele>
        <time>2011-04-25T08:43:05Z</time>
      </trkpt>
      <trkpt lat="31.10918" lon="-4.02288">
        <ele>724.335</ele>
        <time>2011-04-25T08:43:48Z</time>
      </trkpt>
      <trkpt lat="31.11422" lon="-4.02984">
        <ele>731.626</ele>
        <time>2011-04-25T08:44:23Z</time>
      </trkpt>
      <trkpt lat="31.11733" lon="-4.03452">
        <ele>736.228</ele>
        <time>2011-04-25T08:44:47Z</time>
      </trkpt>
      <trkpt lat="31.12307" lon="-4.04165">
        <ele>740.341</ele>
        <time>2011-04-25T08:45:24Z</time>
      </trkpt>
      <trkpt lat="31.12426" lon="-4.0429">
        <ele>737.104</ele>
        <time>2011-04-25T08:45:31Z</time>
      </trkpt>
      <trkpt lat="31.1315" lon="-4.04899">
        <ele>738.411</ele>
        <time>2011-04-25T08:46:09Z</time>
      </trkpt>
      <trkpt lat="31.13447" lon="-4.05076">
        <ele>739.448</ele>
        <time>2011-04-25T08:46:23Z</time>
      </trkpt>
      <trkpt lat="31.14694" lon="-4.05748">
        <ele>741.235</ele>
        <time>2011-04-25T08:47:23Z</time>
      </trkpt>
      <trkpt lat="31.14893" lon="-4.05896">
        <ele>739.351</ele>
        <time>2011-04-25T08:47:33Z</time>
      </trkpt>
      <trkpt lat="31.16314" lon="-4.07146">
        <ele>746.971</ele>
        <time>2011-04-25T08:48:47Z</time>
      </trkpt>
      <trkpt lat="31.16553" lon="-4.07362">
        <ele>745.573</ele>
        <time>2011-04-25T08:49:00Z</time>
      </trkpt>
      <trkpt lat="31.16937" lon="-4.07841">
        <ele>744.069</ele>
        <time>2011-04-25T08:49:25Z</time>
      </trkpt>
      <trkpt lat="31.17191" lon="-4.08147">
        <ele>741.954</ele>
        <time>2011-04-25T08:49:41Z</time>
      </trkpt>
      <trkpt lat="31.17722" lon="-4.08502">
        <ele>749.804</ele>
        <time>2011-04-25T08:50:07Z</time>
      </trkpt>
      <trkpt lat="31.18297" lon="-4.08934">
        <ele>750.426</ele>
        <time>2011-04-25T08:50:35Z</time>
      </trkpt>
      <trkpt lat="31.20187" lon="-4.10342">
        <ele>744.955</ele>
        <time>2011-04-25T08:52:07Z</time>
      </trkpt>
      <trkpt lat="31.21597" lon="-4.11899">
        <ele>743.609</ele>
        <time>2011-04-25T08:53:28Z</time>
      </trkpt>
      <trkpt lat="31.21716" lon="-4.12013">
        <ele>740.88</ele>
        <time>2011-04-25T08:53:35Z</time>
      </trkpt>
      <trkpt lat="31.21881" lon="-4.12105">
        <ele>746.824</ele>
        <time>2011-04-25T08:53:43Z</time>
      </trkpt>
      <trkpt lat="31.23599" lon="-4.13025">
        <ele>748.363</ele>
        <time>2011-04-25T08:55:01Z</time>
      </trkpt>
      <trkpt lat="31.23844" lon="-4.13132">
        <ele>756.496</ele>
        <time>2011-04-25T08:55:12Z</time>
      </trkpt>
      <trkpt lat="31.24147" lon="-4.13243">
        <ele>759.412</ele>
        <time>2011-04-25T08:55:25Z</time>
      </trkpt>
      <trkpt lat="31.25121" lon="-4.13728">
        <ele>759.623</ele>
        <time>2011-04-25T08:56:07Z</time>
      </trkpt>
      <trkpt lat="31.26188" lon="-4.14895">
        <ele>757.137</ele>
        <time>2011-04-25T08:57:05Z</time>
      </trkpt>
      <trkpt lat="31.26785" lon="-4.16263">
        <ele>757.916</ele>
        <time>2011-04-25T08:58:05Z</time>
      </trkpt>
      <trkpt lat="31.28466" lon="-4.17541">
        <ele>764.07</ele>
        <time>2011-04-25T08:59:25Z</time>
      </trkpt>
      <trkpt lat="31.28844" lon="-4.17869">
        <ele>766.124</ele>
        <time>2011-04-25T08:59:44Z</time>
      </trkpt>
      <trkpt lat="31.2931" lon="-4.18379">
        <ele>763.35</ele>
        <time>2011-04-25T09:00:10Z</time>
      </trkpt>
      <trkpt lat="31.29387" lon="-4.18482">
        <ele>764.39</ele>
        <time>2011-04-25T09:00:15Z</time>
      </trkpt>
      <trkpt lat="31.29426" lon="-4.1864">
        <ele>763.617</ele>
        <time>2011-04-25T09:00:21Z</time>
      </trkpt>
      <trkpt lat="31.29371" lon="-4.21215">
        <ele>763.996</ele>
        <time>2011-04-25T09:01:53Z</time>
      </trkpt>
      <trkpt lat="31.29333" lon="-4.21702">
        <ele>764.879</ele>
        <time>2011-04-25T09:02:11Z</time>
      </trkpt>
      <trkpt lat="31.29272" lon="-4.22029">
        <ele>760.576</ele>
        <time>2011-04-25T09:02:25Z</time>
      </trkpt>
      <trkpt lat="31.29252" lon="-4.22395">
        <ele>759.229</ele>
        <time>2011-04-25T09:02:44Z</time>
      </trkpt>
      <trkpt lat="31.29118" lon="-4.22665">
        <ele>758.706</ele>
        <time>2011-04-25T09:03:01Z</time>
      </trkpt>
      <trkpt lat="31.29049" lon="-4.22684">
        <ele>758.677</ele>
        <time>2011-04-25T09:03:08Z</time>
      </trkpt>
      <trkpt lat="31.29013" lon="-4.22733">
        <ele>758.301</ele>
        <time>2011-04-25T09:03:13Z</time>
      </trkpt>
      <trkpt lat="31.28874" lon="-4.23123">
        <ele>760.63</ele>
        <time>2011-04-25T09:03:40Z</time>
      </trkpt>
      <trkpt lat="31.28815" lon="-4.23385">
        <ele>760.215</ele>
        <time>2011-04-25T09:03:57Z</time>
      </trkpt>
      <trkpt lat="31.28885" lon="-4.23536">
        <ele>759.445</ele>
        <time>2011-04-25T09:04:13Z</time>
      </trkpt>
      <trkpt lat="31.28814" lon="-4.24169">
        <ele>762.691</ele>
        <time>2011-04-25T09:04:54Z</time>
      </trkpt>
      <trkpt lat="31.28816" lon="-4.242">
        <ele>761.357</ele>
        <time>2011-04-25T09:04:56Z</time>
      </trkpt>
      <trkpt lat="31.28899" lon="-4.2427">
        <ele>764.147</ele>
        <time>2011-04-25T09:05:05Z</time>
      </trkpt>
      <trkpt lat="31.29065" lon="-4.24341">
        <ele>765.709</ele>
        <time>2011-04-25T09:05:15Z</time>
      </trkpt>
      <trkpt lat="31.2934" lon="-4.24452">
        <ele>761.934</ele>
        <time>2011-04-25T09:05:33Z</time>
      </trkpt>
      <trkpt lat="31.29393" lon="-4.2454">
        <ele>761.563</ele>
        <time>2011-04-25T09:05:42Z</time>
      </trkpt>
      <trkpt lat="31.29297" lon="-4.24819">
        <ele>764.502</ele>
        <time>2011-04-25T09:05:59Z</time>
      </trkpt>
      <trkpt lat="31.29148" lon="-4.25092">
        <ele>764.628</ele>
        <time>2011-04-25T09:06:17Z</time>
      </trkpt>
      <trkpt lat="31.28777" lon="-4.25739">
        <ele>760.155</ele>
        <time>2011-04-25T09:07:29Z</time>
      </trkpt>
      <trkpt lat="31.28597" lon="-4.26412">
        <ele>762.963</ele>
        <time>2011-04-25T09:09:45Z</time>
      </trkpt>
      <trkpt lat="31.28528" lon="-4.2652">
        <ele>762.945</ele>
        <time>2011-04-25T09:10:20Z</time>
      </trkpt>
      <trkpt lat="31.28421" lon="-4.26529">
        <ele>763.948</ele>
        <time>2011-04-25T09:10:39Z</time>
      </trkpt>
      <trkpt lat="31.28242" lon="-4.26562">
        <ele>761.263</ele>
        <time>2011-04-25T09:11:18Z</time>
      </trkpt>
      <trkpt lat="31.28187" lon="-4.26733">
        <ele>761.924</ele>
        <time>2011-04-25T09:11:44Z</time>
      </trkpt>
      <trkpt lat="31.28198" lon="-4.26766">
        <ele>762.103</ele>
        <time>2011-04-25T09:11:50Z</time>
      </trkpt>
      <trkpt lat="31.28375" lon="-4.26858">
        <ele>762.848</ele>
        <time>2011-04-25T09:12:19Z</time>
      </trkpt>
      <trkpt lat="31.28365" lon="-4.26913">
        <ele>763.601</ele>
        <time>2011-04-25T09:12:27Z</time>
      </trkpt>
      <trkpt lat="31.2828" lon="-4.27022">
        <ele>765.636</ele>
        <time>2011-04-25T09:12:40Z</time>
      </trkpt>
      <trkpt lat="31.28074" lon="-4.27264">
        <ele>765.244</ele>
        <time>2011-04-25T09:13:25Z</time>
      </trkpt>
      <trkpt lat="31.27937" lon="-4.27545">
        <ele>768.204</ele>
        <time>2011-04-25T09:13:50Z</time>
      </trkpt>
      <trkpt lat="31.27833" lon="-4.27818">
        <ele>765.35</ele>
        <time>2011-04-25T09:14:10Z</time>
      </trkpt>
      <trkpt lat="31.27795" lon="-4.28161">
        <ele>765.755</ele>
        <time>2011-04-25T09:14:38Z</time>
      </trkpt>
      <trkpt lat="31.27784" lon="-4.28498">
        <ele>765.525</ele>
        <time>2011-04-25T09:15:01Z</time>
      </trkpt>
      <trkpt lat="31.27832" lon="-4.28606">
        <ele>767.136</ele>
        <time>2011-04-25T09:15:09Z</time>
      </trkpt>
      <trkpt lat="31.27911" lon="-4.28665">
        <ele>768.756</ele>
        <time>2011-04-25T09:15:15Z</time>
      </trkpt>
      <trkpt lat="31.28118" lon="-4.28735">
        <ele>769.813</ele>
        <time>2011-04-25T09:15:27Z</time>
      </trkpt>
      <trkpt lat="31.2848" lon="-4.28884">
        <ele>771.502</ele>
        <time>2011-04-25T09:15:47Z</time>
      </trkpt>
      <trkpt lat="31.28862" lon="-4.29095">
        <ele>764.226</ele>
        <time>2011-04-25T09:16:22Z</time>
      </trkpt>
      <trkpt lat="31.29097" lon="-4.29162">
        <ele>766.962</ele>
        <time>2011-04-25T09:17:42Z</time>
      </trkpt>
      <trkpt lat="31.29401" lon="-4.29115">
        <ele>767.313</ele>
        <time>2011-04-25T09:18:03Z</time>
      </trkpt>
      <trkpt lat="31.29565" lon="-4.29056">
        <ele>769.404</ele>
        <time>2011-04-25T09:18:14Z</time>
      </trkpt>
      <trkpt lat="31.29733" lon="-4.28985">
        <ele>764.732</ele>
        <time>2011-04-25T09:28:47Z</time>
      </trkpt>
      <trkpt lat="31.29618" lon="-4.29025">
        <ele>771.713</ele>
        <time>2011-04-25T09:29:06Z</time>
      </trkpt>
      <trkpt lat="31.29514" lon="-4.29081">
        <ele>771.8</ele>
        <time>2011-04-25T09:29:14Z</time>
      </trkpt>
      <trkpt lat="31.29123" lon="-4.29164">
        <ele>770.024</ele>
        <time>2011-04-25T09:29:39Z</time>
      </trkpt>
      <trkpt lat="31.28986" lon="-4.2914">
        <ele>770.201</ele>
        <time>2011-04-25T09:29:47Z</time>
      </trkpt>
      <trkpt lat="31.28823" lon="-4.29056">
        <ele>765.598</ele>
        <time>2011-04-25T09:30:00Z</time>
      </trkpt>
      <trkpt lat="31.28786" lon="-4.29074">
        <ele>764.572</ele>
        <time>2011-04-25T09:30:06Z</time>
      </trkpt>
      <trkpt lat="31.28786" lon="-4.29365">
        <ele>770.04</ele>
        <time>2011-04-25T09:30:21Z</time>
      </trkpt>
      <trkpt lat="31.28786" lon="-4.29756">
        <ele>768.966</ele>
        <time>2011-04-25T09:30:38Z</time>
      </trkpt>
      <trkpt lat="31.28769" lon="-4.31442">
        <ele>774.521</ele>
        <time>2011-04-25T09:31:38Z</time>
      </trkpt>
      <trkpt lat="31.28767" lon="-4.31632">
        <ele>772.661</ele>
        <time>2011-04-25T09:31:45Z</time>
      </trkpt>
      <trkpt lat="31.28761" lon="-4.31798">
        <ele>765.223</ele>
        <time>2011-04-25T09:31:54Z</time>
      </trkpt>
      <trkpt lat="31.28734" lon="-4.31978">
        <ele>760.392</ele>
        <time>2011-04-25T09:32:10Z</time>
      </trkpt>
      <trkpt lat="31.28536" lon="-4.32199">
        <ele>758.987</ele>
        <time>2011-04-25T09:32:47Z</time>
      </trkpt>
      <trkpt lat="31.28363" lon="-4.32435">
        <ele>764.32</ele>
        <time>2011-04-25T09:33:03Z</time>
      </trkpt>
      <trkpt lat="31.28061" lon="-4.32831">
        <ele>766.724</ele>
        <time>2011-04-25T09:33:24Z</time>
      </trkpt>
      <trkpt lat="31.27703" lon="-4.33323">
        <ele>767.231</ele>
        <time>2011-04-25T09:33:48Z</time>
      </trkpt>
      <trkpt lat="31.2744" lon="-4.33689">
        <ele>760.478</ele>
        <time>2011-04-25T09:34:06Z</time>
      </trkpt>
      <trkpt lat="31.27392" lon="-4.33789">
        <ele>762.582</ele>
        <time>2011-04-25T09:34:11Z</time>
      </trkpt>
      <trkpt lat="31.27388" lon="-4.33909">
        <ele>762.596</ele>
        <time>2011-04-25T09:34:16Z</time>
      </trkpt>
      <trkpt lat="31.27462" lon="-4.34209">
        <ele>760.73</ele>
        <time>2011-04-25T09:34:29Z</time>
      </trkpt>
      <trkpt lat="31.27498" lon="-4.34615">
        <ele>762.18</ele>
        <time>2011-04-25T09:34:45Z</time>
      </trkpt>
      <trkpt lat="31.27491" lon="-4.34797">
        <ele>761.765</ele>
        <time>2011-04-25T09:34:52Z</time>
      </trkpt>
      <trkpt lat="31.27158" lon="-4.35592">
        <ele>766.209</ele>
        <time>2011-04-25T09:35:23Z</time>
      </trkpt>
      <trkpt lat="31.27037" lon="-4.36385">
        <ele>769.409</ele>
        <time>2011-04-25T09:35:50Z</time>
      </trkpt>
      <trkpt lat="31.27008" lon="-4.3665">
        <ele>765.935</ele>
        <time>2011-04-25T09:36:00Z</time>
      </trkpt>
      <trkpt lat="31.27048" lon="-4.36859">
        <ele>775.523</ele>
        <time>2011-04-25T09:36:08Z</time>
      </trkpt>
      <trkpt lat="31.27139" lon="-4.37175">
        <ele>771.544</ele>
        <time>2011-04-25T09:36:20Z</time>
      </trkpt>
      <trkpt lat="31.27153" lon="-4.37333">
        <ele>767.583</ele>
        <time>2011-04-25T09:36:27Z</time>
      </trkpt>
      <trkpt lat="31.26973" lon="-4.38215">
        <ele>777.737</ele>
        <time>2011-04-25T09:36:57Z</time>
      </trkpt>
      <trkpt lat="31.26906" lon="-4.38615">
        <ele>777.738</ele>
        <time>2011-04-25T09:37:11Z</time>
      </trkpt>
      <trkpt lat="31.26962" lon="-4.39127">
        <ele>780.622</ele>
        <time>2011-04-25T09:37:28Z</time>
      </trkpt>
      <trkpt lat="31.27033" lon="-4.40028">
        <ele>777.407</ele>
        <time>2011-04-25T09:37:57Z</time>
      </trkpt>
      <trkpt lat="31.26963" lon="-4.40938">
        <ele>782.375</ele>
        <time>2011-04-25T09:38:27Z</time>
      </trkpt>
      <trkpt lat="31.2696" lon="-4.40967">
        <ele>782.372</ele>
        <time>2011-04-25T09:38:28Z</time>
      </trkpt>
      <trkpt lat="31.26867" lon="-4.41499">
        <ele>781.469</ele>
        <time>2011-04-25T09:38:46Z</time>
      </trkpt>
      <trkpt lat="31.26428" lon="-4.43125">
        <ele>786.148</ele>
        <time>2011-04-25T09:39:44Z</time>
      </trkpt>
      <trkpt lat="31.26385" lon="-4.43468">
        <ele>792.558</ele>
        <time>2011-04-25T09:39:55Z</time>
      </trkpt>
      <trkpt lat="31.26428" lon="-4.4451">
        <ele>793.268</ele>
        <time>2011-04-25T09:40:28Z</time>
      </trkpt>
      <trkpt lat="31.26354" lon="-4.45041">
        <ele>795.673</ele>
        <time>2011-04-25T09:40:46Z</time>
      </trkpt>
      <trkpt lat="31.2624" lon="-4.45508">
        <ele>797.056</ele>
        <time>2011-04-25T09:41:03Z</time>
      </trkpt>
      <trkpt lat="31.26202" lon="-4.45681">
        <ele>795.732</ele>
        <time>2011-04-25T09:41:09Z</time>
      </trkpt>
      <trkpt lat="31.26165" lon="-4.4625">
        <ele>804.219</ele>
        <time>2011-04-25T09:41:28Z</time>
      </trkpt>
      <trkpt lat="31.2614" lon="-4.46521">
        <ele>801.416</ele>
        <time>2011-04-25T09:41:38Z</time>
      </trkpt>
      <trkpt lat="31.26095" lon="-4.46623">
        <ele>806.405</ele>
        <time>2011-04-25T09:41:43Z</time>
      </trkpt>
      <trkpt lat="31.25976" lon="-4.46782">
        <ele>819.088</ele>
        <time>2011-04-25T09:41:50Z</time>
      </trkpt>
      <trkpt lat="31.25799" lon="-4.47016">
        <ele>822.528</ele>
        <time>2011-04-25T09:42:01Z</time>
      </trkpt>
      <trkpt lat="31.25579" lon="-4.4735">
        <ele>815.687</ele>
        <time>2011-04-25T09:42:17Z</time>
      </trkpt>
      <trkpt lat="31.25533" lon="-4.47389">
        <ele>812.479</ele>
        <time>2011-04-25T09:42:20Z</time>
      </trkpt>
      <trkpt lat="31.25216" lon="-4.47473">
        <ele>810.679</ele>
        <time>2011-04-25T09:42:35Z</time>
      </trkpt>
      <trkpt lat="31.25087" lon="-4.47508">
        <ele>804.338</ele>
        <time>2011-04-25T09:42:42Z</time>
      </trkpt>
      <trkpt lat="31.25048" lon="-4.47552">
        <ele>801.752</ele>
        <time>2011-04-25T09:42:45Z</time>
      </trkpt>
      <trkpt lat="31.2488" lon="-4.47975">
        <ele>804.371</ele>
        <time>2011-04-25T09:43:03Z</time>
      </trkpt>
      <trkpt lat="31.24703" lon="-4.48332">
        <ele>801.511</ele>
        <time>2011-04-25T09:43:17Z</time>
      </trkpt>
      <trkpt lat="31.24521" lon="-4.48681">
        <ele>795.436</ele>
        <time>2011-04-25T09:43:31Z</time>
      </trkpt>
      <trkpt lat="31.24452" lon="-4.49258">
        <ele>798.113</ele>
        <time>2011-04-25T09:43:52Z</time>
      </trkpt>
      <trkpt lat="31.24436" lon="-4.4959">
        <ele>794.512</ele>
        <time>2011-04-25T09:44:04Z</time>
      </trkpt>
      <trkpt lat="31.24519" lon="-4.49882">
        <ele>804.742</ele>
        <time>2011-04-25T09:44:15Z</time>
      </trkpt>
      <trkpt lat="31.24584" lon="-4.5018">
        <ele>797.142</ele>
        <time>2011-04-25T09:44:29Z</time>
      </trkpt>
      <trkpt lat="31.24504" lon="-4.50444">
        <ele>804.536</ele>
        <time>2011-04-25T09:44:43Z</time>
      </trkpt>
      <trkpt lat="31.24486" lon="-4.5068">
        <ele>815.758</ele>
        <time>2011-04-25T09:44:54Z</time>
      </trkpt>
      <trkpt lat="31.24452" lon="-4.50775">
        <ele>823.073</ele>
        <time>2011-04-25T09:44:59Z</time>
      </trkpt>
      <trkpt lat="31.24389" lon="-4.50869">
        <ele>825.149</ele>
        <time>2011-04-25T09:45:04Z</time>
      </trkpt>
      <trkpt lat="31.24142" lon="-4.51196">
        <ele>819.273</ele>
        <time>2011-04-25T09:45:21Z</time>
      </trkpt>
      <trkpt lat="31.24034" lon="-4.51392">
        <ele>816.62</ele>
        <time>2011-04-25T09:45:31Z</time>
      </trkpt>
      <trkpt lat="31.23972" lon="-4.51617">
        <ele>815.948</ele>
        <time>2011-04-25T09:45:40Z</time>
      </trkpt>
      <trkpt lat="31.2391" lon="-4.52089">
        <ele>815.79</ele>
        <time>2011-04-25T09:45:57Z</time>
      </trkpt>
      <trkpt lat="31.23859" lon="-4.52451">
        <ele>814.334</ele>
        <time>2011-04-25T09:46:11Z</time>
      </trkpt>
      <trkpt lat="31.2396" lon="-4.5291">
        <ele>828.197</ele>
        <time>2011-04-25T09:46:27Z</time>
      </trkpt>
      <trkpt lat="31.24255" lon="-4.53888">
        <ele>834.027</ele>
        <time>2011-04-25T09:47:02Z</time>
      </trkpt>
      <trkpt lat="31.24246" lon="-4.54983">
        <ele>845.794</ele>
        <time>2011-04-25T09:47:41Z</time>
      </trkpt>
      <trkpt lat="31.24325" lon="-4.55646">
        <ele>836.733</ele>
        <time>2011-04-25T09:48:07Z</time>
      </trkpt>
      <trkpt lat="31.24255" lon="-4.56467">
        <ele>832.825</ele>
        <time>2011-04-25T10:00:44Z</time>
      </trkpt>
      <trkpt lat="31.24194" lon="-4.56687">
        <ele>836.982</ele>
        <time>2011-04-25T10:01:04Z</time>
      </trkpt>
      <trkpt lat="31.24168" lon="-4.56943">
        <ele>837.792</ele>
        <time>2011-04-25T10:01:15Z</time>
      </trkpt>
      <trkpt lat="31.24199" lon="-4.57462">
        <ele>840.224</ele>
        <time>2011-04-25T10:01:38Z</time>
      </trkpt>
      <trkpt lat="31.2446" lon="-4.58582">
        <ele>851.981</ele>
        <time>2011-04-25T10:02:25Z</time>
      </trkpt>
      <trkpt lat="31.24832" lon="-4.59304">
        <ele>846.663</ele>
        <time>2011-04-25T10:02:57Z</time>
      </trkpt>
      <trkpt lat="31.24915" lon="-4.59534">
        <ele>848.923</ele>
        <time>2011-04-25T10:03:07Z</time>
      </trkpt>
      <trkpt lat="31.2492" lon="-4.59727">
        <ele>846.766</ele>
        <time>2011-04-25T10:03:15Z</time>
      </trkpt>
      <trkpt lat="31.24829" lon="-4.6017">
        <ele>849.772</ele>
        <time>2011-04-25T10:03:35Z</time>
      </trkpt>
      <trkpt lat="31.24845" lon="-4.60422">
        <ele>854.854</ele>
        <time>2011-04-25T10:03:45Z</time>
      </trkpt>
      <trkpt lat="31.25091" lon="-4.61917">
        <ele>861.864</ele>
        <time>2011-04-25T10:04:40Z</time>
      </trkpt>
      <trkpt lat="31.25241" lon="-4.63087">
        <ele>863.453</ele>
        <time>2011-04-25T10:05:21Z</time>
      </trkpt>
      <trkpt lat="31.25343" lon="-4.64115">
        <ele>864.306</ele>
        <time>2011-04-25T10:05:57Z</time>
      </trkpt>
      <trkpt lat="31.25342" lon="-4.65217">
        <ele>873.668</ele>
        <time>2011-04-25T10:06:37Z</time>
      </trkpt>
      <trkpt lat="31.25353" lon="-4.65799">
        <ele>871.63</ele>
        <time>2011-04-25T10:06:58Z</time>
      </trkpt>
      <trkpt lat="31.25364" lon="-4.66052">
        <ele>865.296</ele>
        <time>2011-04-25T10:07:07Z</time>
      </trkpt>
      <trkpt lat="31.25353" lon="-4.66226">
        <ele>863.779</ele>
        <time>2011-04-25T10:07:14Z</time>
      </trkpt>
      <trkpt lat="31.25296" lon="-4.66366">
        <ele>863.235</ele>
        <time>2011-04-25T10:07:20Z</time>
      </trkpt>
      <trkpt lat="31.25201" lon="-4.66487">
        <ele>862.011</ele>
        <time>2011-04-25T10:07:26Z</time>
      </trkpt>
      <trkpt lat="31.24925" lon="-4.66676">
        <ele>858.767</ele>
        <time>2011-04-25T10:07:40Z</time>
      </trkpt>
      <trkpt lat="31.24825" lon="-4.66784">
        <ele>860.014</ele>
        <time>2011-04-25T10:07:46Z</time>
      </trkpt>
      <trkpt lat="31.2473" lon="-4.66973">
        <ele>861.441</ele>
        <time>2011-04-25T10:07:54Z</time>
      </trkpt>
      <trkpt lat="31.24599" lon="-4.67562">
        <ele>853.525</ele>
        <time>2011-04-25T10:08:16Z</time>
      </trkpt>
      <trkpt lat="31.24618" lon="-4.67976">
        <ele>850.647</ele>
        <time>2011-04-25T10:08:33Z</time>
      </trkpt>
      <trkpt lat="31.2459" lon="-4.68104">
        <ele>848.09</ele>
        <time>2011-04-25T10:08:38Z</time>
      </trkpt>
      <trkpt lat="31.24024" lon="-4.6963">
        <ele>847.153</ele>
        <time>2011-04-25T10:09:38Z</time>
      </trkpt>
      <trkpt lat="31.22997" lon="-4.73704">
        <ele>824.934</ele>
        <time>2011-04-25T10:13:29Z</time>
      </trkpt>
      <trkpt lat="31.22796" lon="-4.75328">
        <ele>835.133</ele>
        <time>2011-04-25T10:14:30Z</time>
      </trkpt>
      <trkpt lat="31.22536" lon="-4.7745">
        <ele>836.308</ele>
        <time>2011-04-25T10:15:48Z</time>
      </trkpt>
      <trkpt lat="31.22286" lon="-4.78661">
        <ele>826.843</ele>
        <time>2011-04-25T10:16:33Z</time>
      </trkpt>
      <trkpt lat="31.22087" lon="-4.79362">
        <ele>824.538</ele>
        <time>2011-04-25T10:17:00Z</time>
      </trkpt>
      <trkpt lat="31.21992" lon="-4.79678">
        <ele>820.543</ele>
        <time>2011-04-25T10:17:12Z</time>
      </trkpt>
      <trkpt lat="31.21913" lon="-4.80914">
        <ele>821.114</ele>
        <time>2011-04-25T10:18:10Z</time>
      </trkpt>
      <trkpt lat="31.21941" lon="-4.81079">
        <ele>822.851</ele>
        <time>2011-04-25T10:18:17Z</time>
      </trkpt>
      <trkpt lat="31.21979" lon="-4.81346">
        <ele>821.127</ele>
        <time>2011-04-25T10:18:28Z</time>
      </trkpt>
      <trkpt lat="31.21968" lon="-4.81626">
        <ele>819.991</ele>
        <time>2011-04-25T10:18:40Z</time>
      </trkpt>
      <trkpt lat="31.21966" lon="-4.81925">
        <ele>816.096</ele>
        <time>2011-04-25T10:19:03Z</time>
      </trkpt>
      <trkpt lat="31.21905" lon="-4.82056">
        <ele>818.587</ele>
        <time>2011-04-25T10:19:13Z</time>
      </trkpt>
      <trkpt lat="31.21812" lon="-4.82144">
        <ele>820.503</ele>
        <time>2011-04-25T10:19:23Z</time>
      </trkpt>
      <trkpt lat="31.21658" lon="-4.8216">
        <ele>817.329</ele>
        <time>2011-04-25T10:19:34Z</time>
      </trkpt>
      <trkpt lat="31.21563" lon="-4.82228">
        <ele>816.041</ele>
        <time>2011-04-25T10:19:41Z</time>
      </trkpt>
      <trkpt lat="31.21352" lon="-4.82594">
        <ele>815.425</ele>
        <time>2011-04-25T10:20:06Z</time>
      </trkpt>
      <trkpt lat="31.21022" lon="-4.84412">
        <ele>826.233</ele>
        <time>2011-04-25T10:21:31Z</time>
      </trkpt>
      <trkpt lat="31.20796" lon="-4.85262">
        <ele>835.863</ele>
        <time>2011-04-25T10:22:03Z</time>
      </trkpt>
      <trkpt lat="31.20689" lon="-4.85673">
        <ele>835.826</ele>
        <time>2011-04-25T10:22:19Z</time>
      </trkpt>
      <trkpt lat="31.20636" lon="-4.86314">
        <ele>843.722</ele>
        <time>2011-04-25T10:22:43Z</time>
      </trkpt>
      <trkpt lat="31.20623" lon="-4.8774">
        <ele>855.903</ele>
        <time>2011-04-25T10:23:34Z</time>
      </trkpt>
      <trkpt lat="31.20592" lon="-4.88321">
        <ele>859.809</ele>
        <time>2011-04-25T10:23:54Z</time>
      </trkpt>
      <trkpt lat="31.20183" lon="-4.89972">
        <ele>855.154</ele>
        <time>2011-04-25T10:25:00Z</time>
      </trkpt>
      <trkpt lat="31.20112" lon="-4.90327">
        <ele>853.035</ele>
        <time>2011-04-25T10:25:13Z</time>
      </trkpt>
      <trkpt lat="31.20048" lon="-4.91049">
        <ele>850.405</ele>
        <time>2011-04-25T10:25:39Z</time>
      </trkpt>
      <trkpt lat="31.20001" lon="-4.91246">
        <ele>849.094</ele>
        <time>2011-04-25T10:25:46Z</time>
      </trkpt>
      <trkpt lat="31.19873" lon="-4.91581">
        <ele>845.775</ele>
        <time>2011-04-25T10:25:59Z</time>
      </trkpt>
      <trkpt lat="31.19475" lon="-4.92334">
        <ele>841.111</ele>
        <time>2011-04-25T10:26:31Z</time>
      </trkpt>
      <trkpt lat="31.19317" lon="-4.92902">
        <ele>842.812</ele>
        <time>2011-04-25T10:26:53Z</time>
      </trkpt>
      <trkpt lat="31.19237" lon="-4.93244">
        <ele>838.742</ele>
        <time>2011-04-25T10:27:06Z</time>
      </trkpt>
      <trkpt lat="31.19039" lon="-4.93788">
        <ele>834.475</ele>
        <time>2011-04-25T10:27:28Z</time>
      </trkpt>
      <trkpt lat="31.18769" lon="-4.95024">
        <ele>841.339</ele>
        <time>2011-04-25T10:28:24Z</time>
      </trkpt>
      <trkpt lat="31.18526" lon="-4.95907">
        <ele>845.311</ele>
        <time>2011-04-25T10:28:59Z</time>
      </trkpt>
      <trkpt lat="31.18387" lon="-4.96286">
        <ele>843.724</ele>
        <time>2011-04-25T10:29:15Z</time>
      </trkpt>
      <trkpt lat="31.17858" lon="-4.97454">
        <ele>838.352</ele>
        <time>2011-04-25T10:30:10Z</time>
      </trkpt>
      <trkpt lat="31.17801" lon="-4.97626">
        <ele>842.369</ele>
        <time>2011-04-25T10:30:17Z</time>
      </trkpt>
      <trkpt lat="31.17698" lon="-4.98204">
        <ele>849.672</ele>
        <time>2011-04-25T10:30:39Z</time>
      </trkpt>
      <trkpt lat="31.17386" lon="-4.98889">
        <ele>857.863</ele>
        <time>2011-04-25T10:31:06Z</time>
      </trkpt>
      <trkpt lat="31.17377" lon="-4.98916">
        <ele>857.863</ele>
        <time>2011-04-25T10:31:07Z</time>
      </trkpt>
      <trkpt lat="31.17303" lon="-4.99365">
        <ele>858.605</ele>
        <time>2011-04-25T10:31:25Z</time>
      </trkpt>
      <trkpt lat="31.17366" lon="-4.99861">
        <ele>865.099</ele>
        <time>2011-04-25T10:31:44Z</time>
      </trkpt>
      <trkpt lat="31.17406" lon="-5.00086">
        <ele>861.647</ele>
        <time>2011-04-25T10:31:52Z</time>
      </trkpt>
      <trkpt lat="31.1741" lon="-5.0034">
        <ele>865.87</ele>
        <time>2011-04-25T10:32:02Z</time>
      </trkpt>
      <trkpt lat="31.17369" lon="-5.00869">
        <ele>862.137</ele>
        <time>2011-04-25T10:32:20Z</time>
      </trkpt>
      <trkpt lat="31.17199" lon="-5.01186">
        <ele>859.937</ele>
        <time>2011-04-25T10:32:33Z</time>
      </trkpt>
      <trkpt lat="31.17147" lon="-5.01262">
        <ele>855.022</ele>
        <time>2011-04-25T10:32:37Z</time>
      </trkpt>
      <trkpt lat="31.1696" lon="-5.0144">
        <ele>844.866</ele>
        <time>2011-04-25T10:32:51Z</time>
      </trkpt>
      <trkpt lat="31.16907" lon="-5.01538">
        <ele>842.21</ele>
        <time>2011-04-25T10:32:57Z</time>
      </trkpt>
      <trkpt lat="31.1683" lon="-5.01831">
        <ele>832.139</ele>
        <time>2011-04-25T10:33:21Z</time>
      </trkpt>
      <trkpt lat="31.16792" lon="-5.0212">
        <ele>839.24</ele>
        <time>2011-04-25T10:33:35Z</time>
      </trkpt>
      <trkpt lat="31.16409" lon="-5.02763">
        <ele>834.897</ele>
        <time>2011-04-25T10:34:13Z</time>
      </trkpt>
      <trkpt lat="31.16251" lon="-5.03069">
        <ele>829.345</ele>
        <time>2011-04-25T10:34:27Z</time>
      </trkpt>
      <trkpt lat="31.16054" lon="-5.03667">
        <ele>829.84</ele>
        <time>2011-04-25T10:34:53Z</time>
      </trkpt>
      <trkpt lat="31.15721" lon="-5.04433">
        <ele>832.215</ele>
        <time>2011-04-25T10:35:40Z</time>
      </trkpt>
      <trkpt lat="31.15692" lon="-5.04568">
        <ele>833.969</ele>
        <time>2011-04-25T10:35:47Z</time>
      </trkpt>
      <trkpt lat="31.1583" lon="-5.05812">
        <ele>848.093</ele>
        <time>2011-04-25T10:36:42Z</time>
      </trkpt>
      <trkpt lat="31.15837" lon="-5.06101">
        <ele>854.72</ele>
        <time>2011-04-25T10:36:54Z</time>
      </trkpt>
      <trkpt lat="31.15848" lon="-5.065">
        <ele>856.023</ele>
        <time>2011-04-25T10:37:11Z</time>
      </trkpt>
      <trkpt lat="31.15743" lon="-5.0675">
        <ele>854.087</ele>
        <time>2011-04-25T10:37:23Z</time>
      </trkpt>
      <trkpt lat="31.15633" lon="-5.06907">
        <ele>852.39</ele>
        <time>2011-04-25T10:37:32Z</time>
      </trkpt>
      <trkpt lat="31.15593" lon="-5.07036">
        <ele>849.753</ele>
        <time>2011-04-25T10:37:38Z</time>
      </trkpt>
      <trkpt lat="31.15525" lon="-5.07557">
        <ele>849.557</ele>
        <time>2011-04-25T10:38:02Z</time>
      </trkpt>
      <trkpt lat="31.15331" lon="-5.07883">
        <ele>854.739</ele>
        <time>2011-04-25T10:38:20Z</time>
      </trkpt>
      <trkpt lat="31.15285" lon="-5.07918">
        <ele>856.561</ele>
        <time>2011-04-25T10:38:23Z</time>
      </trkpt>
      <trkpt lat="31.15143" lon="-5.08035">
        <ele>853.512</ele>
        <time>2011-04-25T10:38:32Z</time>
      </trkpt>
      <trkpt lat="31.15044" lon="-5.08164">
        <ele>852.294</ele>
        <time>2011-04-25T10:38:40Z</time>
      </trkpt>
      <trkpt lat="31.14802" lon="-5.08725">
        <ele>845.264</ele>
        <time>2011-04-25T10:39:21Z</time>
      </trkpt>
      <trkpt lat="31.14714" lon="-5.08829">
        <ele>840.663</ele>
        <time>2011-04-25T10:39:30Z</time>
      </trkpt>
      <trkpt lat="31.14666" lon="-5.08932">
        <ele>841.048</ele>
        <time>2011-04-25T10:39:38Z</time>
      </trkpt>
      <trkpt lat="31.14679" lon="-5.09138">
        <ele>843.983</ele>
        <time>2011-04-25T10:39:52Z</time>
      </trkpt>
      <trkpt lat="31.14582" lon="-5.09303">
        <ele>846.752</ele>
        <time>2011-04-25T10:40:05Z</time>
      </trkpt>
      <trkpt lat="31.14494" lon="-5.09579">
        <ele>851.238</ele>
        <time>2011-04-25T10:40:22Z</time>
      </trkpt>
      <trkpt lat="31.1439" lon="-5.09867">
        <ele>850.054</ele>
        <time>2011-04-25T10:43:07Z</time>
      </trkpt>
      <trkpt lat="31.14343" lon="-5.10183">
        <ele>868.979</ele>
        <time>2011-04-25T10:43:28Z</time>
      </trkpt>
      <trkpt lat="31.14353" lon="-5.10312">
        <ele>872.022</ele>
        <time>2011-04-25T10:43:36Z</time>
      </trkpt>
      <trkpt lat="31.14483" lon="-5.1056">
        <ele>878.747</ele>
        <time>2011-04-25T10:43:49Z</time>
      </trkpt>
      <trkpt lat="31.14509" lon="-5.1062">
        <ele>880.297</ele>
        <time>2011-04-25T10:43:52Z</time>
      </trkpt>
      <trkpt lat="31.14568" lon="-5.10779">
        <ele>879.451</ele>
        <time>2011-04-25T10:44:01Z</time>
      </trkpt>
      <trkpt lat="31.14565" lon="-5.10849">
        <ele>874.379</ele>
        <time>2011-04-25T10:44:06Z</time>
      </trkpt>
      <trkpt lat="31.14365" lon="-5.11269">
        <ele>855.609</ele>
        <time>2011-04-25T10:44:29Z</time>
      </trkpt>
      <trkpt lat="31.14384" lon="-5.11399">
        <ele>858.524</ele>
        <time>2011-04-25T10:44:38Z</time>
      </trkpt>
      <trkpt lat="31.14364" lon="-5.11473">
        <ele>861.079</ele>
        <time>2011-04-25T10:44:44Z</time>
      </trkpt>
      <trkpt lat="31.14212" lon="-5.1159">
        <ele>861.127</ele>
        <time>2011-04-25T10:44:56Z</time>
      </trkpt>
      <trkpt lat="31.14026" lon="-5.11791">
        <ele>864.661</ele>
        <time>2011-04-25T10:45:10Z</time>
      </trkpt>
      <trkpt lat="31.13807" lon="-5.12143">
        <ele>873.337</ele>
        <time>2011-04-25T10:45:29Z</time>
      </trkpt>
      <trkpt lat="31.13727" lon="-5.12303">
        <ele>872.731</ele>
        <time>2011-04-25T10:45:37Z</time>
      </trkpt>
      <trkpt lat="31.13678" lon="-5.12591">
        <ele>877.962</ele>
        <time>2011-04-25T10:45:50Z</time>
      </trkpt>
      <trkpt lat="31.13783" lon="-5.13043">
        <ele>878.905</ele>
        <time>2011-04-25T10:46:12Z</time>
      </trkpt>
      <trkpt lat="31.13714" lon="-5.13319">
        <ele>891.363</ele>
        <time>2011-04-25T10:46:25Z</time>
      </trkpt>
      <trkpt lat="31.13518" lon="-5.13881">
        <ele>910.943</ele>
        <time>2011-04-25T10:46:50Z</time>
      </trkpt>
      <trkpt lat="31.13397" lon="-5.1406">
        <ele>910.188</ele>
        <time>2011-04-25T10:47:00Z</time>
      </trkpt>
      <trkpt lat="31.13277" lon="-5.14112">
        <ele>908.56</ele>
        <time>2011-04-25T10:47:07Z</time>
      </trkpt>
      <trkpt lat="31.12948" lon="-5.14192">
        <ele>896.658</ele>
        <time>2011-04-25T10:47:23Z</time>
      </trkpt>
      <trkpt lat="31.12206" lon="-5.14486">
        <ele>880.886</ele>
        <time>2011-04-25T10:48:00Z</time>
      </trkpt>
      <trkpt lat="31.12086" lon="-5.14577">
        <ele>877.29</ele>
        <time>2011-04-25T10:48:07Z</time>
      </trkpt>
      <trkpt lat="31.1202" lon="-5.14678">
        <ele>879.387</ele>
        <time>2011-04-25T10:48:12Z</time>
      </trkpt>
      <trkpt lat="31.1186" lon="-5.1517">
        <ele>877.587</ele>
        <time>2011-04-25T10:48:34Z</time>
      </trkpt>
      <trkpt lat="31.11784" lon="-5.15805">
        <ele>873.221</ele>
        <time>2011-04-25T10:49:16Z</time>
      </trkpt>
      <trkpt lat="31.11631" lon="-5.16248">
        <ele>874.86</ele>
        <time>2011-04-25T10:50:14Z</time>
      </trkpt>
      <trkpt lat="31.11612" lon="-5.1617">
        <ele>878.458</ele>
        <time>2011-04-25T11:36:02Z</time>
      </trkpt>
      <trkpt lat="31.11645" lon="-5.16186">
        <ele>875.411</ele>
        <time>2011-04-25T11:38:31Z</time>
      </trkpt>
      <trkpt lat="31.11644" lon="-5.16208">
        <ele>875.367</ele>
        <time>2011-04-25T11:38:35Z</time>
      </trkpt>
      <trkpt lat="31.11576" lon="-5.16444">
        <ele>878.128</ele>
        <time>2011-04-25T11:38:57Z</time>
      </trkpt>
      <trkpt lat="31.11569" lon="-5.16848">
        <ele>887.172</ele>
        <time>2011-04-25T11:39:42Z</time>
      </trkpt>
      <trkpt lat="31.11243" lon="-5.17236">
        <ele>883.274</ele>
        <time>2011-04-25T11:40:16Z</time>
      </trkpt>
      <trkpt lat="31.10749" lon="-5.17651">
        <ele>890.289</ele>
        <time>2011-04-25T11:40:55Z</time>
      </trkpt>
      <trkpt lat="31.10668" lon="-5.17756">
        <ele>897.133</ele>
        <time>2011-04-25T11:41:02Z</time>
      </trkpt>
      <trkpt lat="31.10342" lon="-5.18518">
        <ele>912.927</ele>
        <time>2011-04-25T11:41:39Z</time>
      </trkpt>
      <trkpt lat="31.10178" lon="-5.18869">
        <ele>919.481</ele>
        <time>2011-04-25T11:41:55Z</time>
      </trkpt>
      <trkpt lat="31.08974" lon="-5.20952">
        <ele>942.984</ele>
        <time>2011-04-25T11:43:28Z</time>
      </trkpt>
      <trkpt lat="31.08708" lon="-5.21274">
        <ele>946.566</ele>
        <time>2011-04-25T11:43:45Z</time>
      </trkpt>
      <trkpt lat="31.08084" lon="-5.21822">
        <ele>954.704</ele>
        <time>2011-04-25T11:44:17Z</time>
      </trkpt>
      <trkpt lat="31.06093" lon="-5.23689">
        <ele>969.903</ele>
        <time>2011-04-25T11:45:57Z</time>
      </trkpt>
      <trkpt lat="31.05896" lon="-5.23914">
        <ele>970.532</ele>
        <time>2011-04-25T11:46:08Z</time>
      </trkpt>
      <trkpt lat="31.054" lon="-5.24565">
        <ele>973.579</ele>
        <time>2011-04-25T11:46:38Z</time>
      </trkpt>
      <trkpt lat="31.04591" lon="-5.2556">
        <ele>974.26</ele>
        <time>2011-04-25T11:47:26Z</time>
      </trkpt>
      <trkpt lat="31.03834" lon="-5.26247">
        <ele>951.967</ele>
        <time>2011-04-25T11:48:08Z</time>
      </trkpt>
      <trkpt lat="31.03618" lon="-5.26365">
        <ele>953.552</ele>
        <time>2011-04-25T11:48:20Z</time>
      </trkpt>
      <trkpt lat="31.03143" lon="-5.26451">
        <ele>952.999</ele>
        <time>2011-04-25T11:48:41Z</time>
      </trkpt>
      <trkpt lat="31.02582" lon="-5.26545">
        <ele>942.936</ele>
        <time>2011-04-25T11:49:09Z</time>
      </trkpt>
      <trkpt lat="31.01651" lon="-5.2685">
        <ele>927.581</ele>
        <time>2011-04-25T11:49:52Z</time>
      </trkpt>
      <trkpt lat="31.01038" lon="-5.26978">
        <ele>928.988</ele>
        <time>2011-04-25T11:50:18Z</time>
      </trkpt>
      <trkpt lat="31.00877" lon="-5.2702">
        <ele>922.69</ele>
        <time>2011-04-25T11:50:25Z</time>
      </trkpt>
      <trkpt lat="31.00688" lon="-5.27011">
        <ele>919.364</ele>
        <time>2011-04-25T11:50:35Z</time>
      </trkpt>
      <trkpt lat="31.00457" lon="-5.26931">
        <ele>921.685</ele>
        <time>2011-04-25T11:50:46Z</time>
      </trkpt>
      <trkpt lat="31.00144" lon="-5.26803">
        <ele>917.843</ele>
        <time>2011-04-25T11:51:00Z</time>
      </trkpt>
      <trkpt lat="30.99855" lon="-5.26668">
        <ele>906.729</ele>
        <time>2011-04-25T11:51:21Z</time>
      </trkpt>
      <trkpt lat="30.99738" lon="-5.26651">
        <ele>905.326</ele>
        <time>2011-04-25T11:51:31Z</time>
      </trkpt>
      <trkpt lat="30.99615" lon="-5.26681">
        <ele>906.235</ele>
        <time>2011-04-25T11:51:41Z</time>
      </trkpt>
      <trkpt lat="30.99514" lon="-5.2672">
        <ele>913.574</ele>
        <time>2011-04-25T11:51:47Z</time>
      </trkpt>
      <trkpt lat="30.99341" lon="-5.26789">
        <ele>914.664</ele>
        <time>2011-04-25T11:51:54Z</time>
      </trkpt>
      <trkpt lat="30.98547" lon="-5.27088">
        <ele>908.644</ele>
        <time>2011-04-25T11:52:26Z</time>
      </trkpt>
      <trkpt lat="30.98397" lon="-5.27147">
        <ele>904.29</ele>
        <time>2011-04-25T11:52:33Z</time>
      </trkpt>
      <trkpt lat="30.97018" lon="-5.28434">
        <ele>895.005</ele>
        <time>2011-04-25T11:53:53Z</time>
      </trkpt>
      <trkpt lat="30.9686" lon="-5.28555">
        <ele>893.176</ele>
        <time>2011-04-25T11:54:01Z</time>
      </trkpt>
      <trkpt lat="30.9552" lon="-5.28863">
        <ele>879.717</ele>
        <time>2011-04-25T11:54:59Z</time>
      </trkpt>
      <trkpt lat="30.95422" lon="-5.28966">
        <ele>879.799</ele>
        <time>2011-04-25T11:55:05Z</time>
      </trkpt>
      <trkpt lat="30.95361" lon="-5.29101">
        <ele>878.393</ele>
        <time>2011-04-25T11:55:11Z</time>
      </trkpt>
      <trkpt lat="30.95203" lon="-5.29901">
        <ele>880.677</ele>
        <time>2011-04-25T11:55:48Z</time>
      </trkpt>
      <trkpt lat="30.9512" lon="-5.30022">
        <ele>884.601</ele>
        <time>2011-04-25T11:55:55Z</time>
      </trkpt>
      <trkpt lat="30.94964" lon="-5.30148">
        <ele>885.194</ele>
        <time>2011-04-25T11:56:05Z</time>
      </trkpt>
      <trkpt lat="30.94575" lon="-5.30325">
        <ele>890.285</ele>
        <time>2011-04-25T11:56:26Z</time>
      </trkpt>
      <trkpt lat="30.93855" lon="-5.30677">
        <ele>881.805</ele>
        <time>2011-04-25T11:57:01Z</time>
      </trkpt>
      <trkpt lat="30.93696" lon="-5.30899">
        <ele>891.213</ele>
        <time>2011-04-25T11:57:12Z</time>
      </trkpt>
      <trkpt lat="30.93345" lon="-5.31561">
        <ele>907.485</ele>
        <time>2011-04-25T11:57:40Z</time>
      </trkpt>
      <trkpt lat="30.93063" lon="-5.32156">
        <ele>909.27</ele>
        <time>2011-04-25T11:58:04Z</time>
      </trkpt>
      <trkpt lat="30.92959" lon="-5.32389">
        <ele>905.22</ele>
        <time>2011-04-25T11:58:13Z</time>
      </trkpt>
      <trkpt lat="30.92806" lon="-5.32692">
        <ele>902.72</ele>
        <time>2011-04-25T11:58:25Z</time>
      </trkpt>
      <trkpt lat="30.9244" lon="-5.33177">
        <ele>899.098</ele>
        <time>2011-04-25T11:58:48Z</time>
      </trkpt>
      <trkpt lat="30.91611" lon="-5.34107">
        <ele>904.796</ele>
        <time>2011-04-25T11:59:38Z</time>
      </trkpt>
      <trkpt lat="30.91594" lon="-5.34127">
        <ele>904.792</ele>
        <time>2011-04-25T11:59:39Z</time>
      </trkpt>
      <trkpt lat="30.91099" lon="-5.34633">
        <ele>896.695</ele>
        <time>2011-04-25T12:00:06Z</time>
      </trkpt>
      <trkpt lat="30.90672" lon="-5.34865">
        <ele>892.839</ele>
        <time>2011-04-25T12:00:25Z</time>
      </trkpt>
      <trkpt lat="30.90347" lon="-5.35052">
        <ele>883.338</ele>
        <time>2011-04-25T12:00:41Z</time>
      </trkpt>
      <trkpt lat="30.90288" lon="-5.35147">
        <ele>882.915</ele>
        <time>2011-04-25T12:00:46Z</time>
      </trkpt>
      <trkpt lat="30.90268" lon="-5.35268">
        <ele>884.131</ele>
        <time>2011-04-25T12:00:51Z</time>
      </trkpt>
      <trkpt lat="30.90217" lon="-5.35862">
        <ele>886.412</ele>
        <time>2011-04-25T12:01:18Z</time>
      </trkpt>
      <trkpt lat="30.90026" lon="-5.36214">
        <ele>883.079</ele>
        <time>2011-04-25T12:01:44Z</time>
      </trkpt>
      <trkpt lat="30.89952" lon="-5.36522">
        <ele>883.225</ele>
        <time>2011-04-25T12:02:07Z</time>
      </trkpt>
      <trkpt lat="30.89951" lon="-5.36848">
        <ele>885.288</ele>
        <time>2011-04-25T12:02:25Z</time>
      </trkpt>
      <trkpt lat="30.89831" lon="-5.37209">
        <ele>892.988</ele>
        <time>2011-04-25T12:02:42Z</time>
      </trkpt>
      <trkpt lat="30.89719" lon="-5.37479">
        <ele>895.437</ele>
        <time>2011-04-25T12:02:54Z</time>
      </trkpt>
      <trkpt lat="30.89555" lon="-5.38333">
        <ele>910.691</ele>
        <time>2011-04-25T12:03:26Z</time>
      </trkpt>
      <trkpt lat="30.89483" lon="-5.38539">
        <ele>915.596</ele>
        <time>2011-04-25T12:03:34Z</time>
      </trkpt>
      <trkpt lat="30.89384" lon="-5.38742">
        <ele>918.464</ele>
        <time>2011-04-25T12:03:42Z</time>
      </trkpt>
      <trkpt lat="30.88877" lon="-5.3979">
        <ele>916.901</ele>
        <time>2011-04-25T12:04:23Z</time>
      </trkpt>
      <trkpt lat="30.8865" lon="-5.41351">
        <ele>928.922</ele>
        <time>2011-04-25T12:05:19Z</time>
      </trkpt>
      <trkpt lat="30.88725" lon="-5.4279">
        <ele>950.264</ele>
        <time>2011-04-25T12:06:07Z</time>
      </trkpt>
      <trkpt lat="30.88702" lon="-5.43044">
        <ele>951.375</ele>
        <time>2011-04-25T12:06:16Z</time>
      </trkpt>
      <trkpt lat="30.88579" lon="-5.43192">
        <ele>952.524</ele>
        <time>2011-04-25T12:06:23Z</time>
      </trkpt>
      <trkpt lat="30.87938" lon="-5.43838">
        <ele>953.023</ele>
        <time>2011-04-25T12:06:59Z</time>
      </trkpt>
      <trkpt lat="30.87694" lon="-5.44083">
        <ele>950.947</ele>
        <time>2011-04-25T12:07:12Z</time>
      </trkpt>
      <trkpt lat="30.87475" lon="-5.44395">
        <ele>949.986</ele>
        <time>2011-04-25T12:07:26Z</time>
      </trkpt>
      <trkpt lat="30.87407" lon="-5.44618">
        <ele>953.699</ele>
        <time>2011-04-25T12:07:34Z</time>
      </trkpt>
      <trkpt lat="30.87305" lon="-5.45072">
        <ele>950.927</ele>
        <time>2011-04-25T12:07:50Z</time>
      </trkpt>
      <trkpt lat="30.87293" lon="-5.4525">
        <ele>955.438</ele>
        <time>2011-04-25T12:07:56Z</time>
      </trkpt>
      <trkpt lat="30.87426" lon="-5.4619">
        <ele>964.902</ele>
        <time>2011-04-25T12:08:29Z</time>
      </trkpt>
      <trkpt lat="30.87449" lon="-5.46691">
        <ele>968.599</ele>
        <time>2011-04-25T12:08:47Z</time>
      </trkpt>
      <trkpt lat="30.87374" lon="-5.46975">
        <ele>972.39</ele>
        <time>2011-04-25T12:08:57Z</time>
      </trkpt>
      <trkpt lat="30.86854" lon="-5.47999">
        <ele>984.395</ele>
        <time>2011-04-25T12:09:37Z</time>
      </trkpt>
      <trkpt lat="30.86841" lon="-5.48024">
        <ele>984.393</ele>
        <time>2011-04-25T12:09:38Z</time>
      </trkpt>
      <trkpt lat="30.86439" lon="-5.48782">
        <ele>977.227</ele>
        <time>2011-04-25T12:10:09Z</time>
      </trkpt>
      <trkpt lat="30.86308" lon="-5.49142">
        <ele>973.635</ele>
        <time>2011-04-25T12:10:22Z</time>
      </trkpt>
      <trkpt lat="30.86237" lon="-5.49332">
        <ele>969.41</ele>
        <time>2011-04-25T12:10:29Z</time>
      </trkpt>
      <trkpt lat="30.85951" lon="-5.49903">
        <ele>962.821</ele>
        <time>2011-04-25T12:10:52Z</time>
      </trkpt>
      <trkpt lat="30.85872" lon="-5.50413">
        <ele>962.907</ele>
        <time>2011-04-25T12:11:10Z</time>
      </trkpt>
      <trkpt lat="30.85841" lon="-5.50491">
        <ele>961.333</ele>
        <time>2011-04-25T12:11:13Z</time>
      </trkpt>
      <trkpt lat="30.85771" lon="-5.50611">
        <ele>962.974</ele>
        <time>2011-04-25T12:11:18Z</time>
      </trkpt>
      <trkpt lat="30.85533" lon="-5.50899">
        <ele>961.488</ele>
        <time>2011-04-25T12:11:32Z</time>
      </trkpt>
      <trkpt lat="30.85309" lon="-5.51067">
        <ele>957.147</ele>
        <time>2011-04-25T12:11:43Z</time>
      </trkpt>
      <trkpt lat="30.84893" lon="-5.5114">
        <ele>951.411</ele>
        <time>2011-04-25T12:12:00Z</time>
      </trkpt>
      <trkpt lat="30.84728" lon="-5.51154">
        <ele>945.889</ele>
        <time>2011-04-25T12:12:07Z</time>
      </trkpt>
      <trkpt lat="30.8436" lon="-5.51132">
        <ele>940.463</ele>
        <time>2011-04-25T12:12:23Z</time>
      </trkpt>
      <trkpt lat="30.83854" lon="-5.50815">
        <ele>933.473</ele>
        <time>2011-04-25T12:12:52Z</time>
      </trkpt>
      <trkpt lat="30.83438" lon="-5.50601">
        <ele>928.809</ele>
        <time>2011-04-25T12:13:16Z</time>
      </trkpt>
      <trkpt lat="30.83099" lon="-5.50531">
        <ele>927.361</ele>
        <time>2011-04-25T12:13:32Z</time>
      </trkpt>
      <trkpt lat="30.82517" lon="-5.50211">
        <ele>920.982</ele>
        <time>2011-04-25T12:13:58Z</time>
      </trkpt>
      <trkpt lat="30.81742" lon="-5.49755">
        <ele>906.942</ele>
        <time>2011-04-25T12:14:35Z</time>
      </trkpt>
      <trkpt lat="30.81241" lon="-5.49334">
        <ele>901.758</ele>
        <time>2011-04-25T12:15:00Z</time>
      </trkpt>
      <trkpt lat="30.80966" lon="-5.49077">
        <ele>895.174</ele>
        <time>2011-04-25T12:15:14Z</time>
      </trkpt>
      <trkpt lat="30.80798" lon="-5.49048">
        <ele>891.373</ele>
        <time>2011-04-25T12:15:22Z</time>
      </trkpt>
      <trkpt lat="30.80534" lon="-5.49195">
        <ele>889.417</ele>
        <time>2011-04-25T12:15:36Z</time>
      </trkpt>
      <trkpt lat="30.80437" lon="-5.49294">
        <ele>887.729</ele>
        <time>2011-04-25T12:15:42Z</time>
      </trkpt>
      <trkpt lat="30.79916" lon="-5.50625">
        <ele>882.669</ele>
        <time>2011-04-25T12:16:35Z</time>
      </trkpt>
      <trkpt lat="30.79697" lon="-5.51177">
        <ele>875.028</ele>
        <time>2011-04-25T12:16:56Z</time>
      </trkpt>
      <trkpt lat="30.79613" lon="-5.51354">
        <ele>871.39</ele>
        <time>2011-04-25T12:17:03Z</time>
      </trkpt>
      <trkpt lat="30.79517" lon="-5.51484">
        <ele>870.348</ele>
        <time>2011-04-25T12:17:09Z</time>
      </trkpt>
      <trkpt lat="30.78229" lon="-5.52225">
        <ele>851.726</ele>
        <time>2011-04-25T12:18:15Z</time>
      </trkpt>
      <trkpt lat="30.78109" lon="-5.52389">
        <ele>851.966</ele>
        <time>2011-04-25T12:18:24Z</time>
      </trkpt>
      <trkpt lat="30.78007" lon="-5.52585">
        <ele>853.823</ele>
        <time>2011-04-25T12:18:33Z</time>
      </trkpt>
      <trkpt lat="30.77976" lon="-5.5265">
        <ele>851.838</ele>
        <time>2011-04-25T12:18:36Z</time>
      </trkpt>
      <trkpt lat="30.77942" lon="-5.52792">
        <ele>853.852</ele>
        <time>2011-04-25T12:18:42Z</time>
      </trkpt>
      <trkpt lat="30.7799" lon="-5.53021">
        <ele>857.972</ele>
        <time>2011-04-25T12:18:51Z</time>
      </trkpt>
      <trkpt lat="30.78205" lon="-5.53549">
        <ele>858.331</ele>
        <time>2011-04-25T12:19:13Z</time>
      </trkpt>
      <trkpt lat="30.78383" lon="-5.54701">
        <ele>881.393</ele>
        <time>2011-04-25T12:19:59Z</time>
      </trkpt>
      <trkpt lat="30.78398" lon="-5.54842">
        <ele>879.16</ele>
        <time>2011-04-25T12:20:06Z</time>
      </trkpt>
      <trkpt lat="30.78384" lon="-5.54963">
        <ele>877.91</ele>
        <time>2011-04-25T12:20:13Z</time>
      </trkpt>
      <trkpt lat="30.78311" lon="-5.55199">
        <ele>865.881</ele>
        <time>2011-04-25T12:20:29Z</time>
      </trkpt>
      <trkpt lat="30.78374" lon="-5.56053">
        <ele>867.478</ele>
        <time>2011-04-25T12:21:25Z</time>
      </trkpt>
      <trkpt lat="30.78182" lon="-5.56404">
        <ele>865.444</ele>
        <time>2011-04-25T12:22:04Z</time>
      </trkpt>
      <trkpt lat="30.78064" lon="-5.56564">
        <ele>868.265</ele>
        <time>2011-04-25T12:22:25Z</time>
      </trkpt>
      <trkpt lat="30.78022" lon="-5.56613">
        <ele>865.203</ele>
        <time>2011-04-25T12:22:32Z</time>
      </trkpt>
      <trkpt lat="30.78112" lon="-5.56743">
        <ele>863.328</ele>
        <time>2011-04-25T12:22:43Z</time>
      </trkpt>
      <trkpt lat="30.78346" lon="-5.5692">
        <ele>868.017</ele>
        <time>2011-04-25T12:23:01Z</time>
      </trkpt>
      <trkpt lat="30.78638" lon="-5.57078">
        <ele>869.995</ele>
        <time>2011-04-25T12:23:23Z</time>
      </trkpt>
      <trkpt lat="30.78852" lon="-5.572">
        <ele>870.668</ele>
        <time>2011-04-25T12:23:36Z</time>
      </trkpt>
      <trkpt lat="30.7967" lon="-5.58121">
        <ele>886.044</ele>
        <time>2011-04-25T12:27:15Z</time>
      </trkpt>
      <trkpt lat="30.79808" lon="-5.58215">
        <ele>881.242</ele>
        <time>2011-04-25T12:27:27Z</time>
      </trkpt>
      <trkpt lat="30.79852" lon="-5.58321">
        <ele>879.692</ele>
        <time>2011-04-25T12:27:35Z</time>
      </trkpt>
      <trkpt lat="30.79983" lon="-5.59003">
        <ele>885.728</ele>
        <time>2011-04-25T12:28:10Z</time>
      </trkpt>
      <trkpt lat="30.80001" lon="-5.59092">
        <ele>886.2</ele>
        <time>2011-04-25T12:28:14Z</time>
      </trkpt>
      <trkpt lat="30.80059" lon="-5.59379">
        <ele>886.643</ele>
        <time>2011-04-25T12:28:30Z</time>
      </trkpt>
      <trkpt lat="30.80208" lon="-5.59723">
        <ele>892.147</ele>
        <time>2011-04-25T12:28:51Z</time>
      </trkpt>
      <trkpt lat="30.80285" lon="-5.59881">
        <ele>893.155</ele>
        <time>2011-04-25T12:29:00Z</time>
      </trkpt>
      <trkpt lat="30.823" lon="-5.63838">
        <ele>915.899</ele>
        <time>2011-04-25T12:31:59Z</time>
      </trkpt>
      <trkpt lat="30.82364" lon="-5.63979">
        <ele>917.536</ele>
        <time>2011-04-25T12:32:05Z</time>
      </trkpt>
      <trkpt lat="30.82367" lon="-5.64122">
        <ele>918.585</ele>
        <time>2011-04-25T12:32:11Z</time>
      </trkpt>
      <trkpt lat="30.82197" lon="-5.65255">
        <ele>910.349</ele>
        <time>2011-04-25T12:33:00Z</time>
      </trkpt>
      <trkpt lat="30.82209" lon="-5.65361">
        <ele>908.994</ele>
        <time>2011-04-25T12:33:06Z</time>
      </trkpt>
      <trkpt lat="30.8226" lon="-5.65461">
        <ele>908.406</ele>
        <time>2011-04-25T12:33:12Z</time>
      </trkpt>
      <trkpt lat="30.82436" lon="-5.65566">
        <ele>910.968</ele>
        <time>2011-04-25T12:33:26Z</time>
      </trkpt>
      <trkpt lat="30.82632" lon="-5.65611">
        <ele>915.277</ele>
        <time>2011-04-25T12:33:38Z</time>
      </trkpt>
      <trkpt lat="30.82879" lon="-5.65685">
        <ele>911.879</ele>
        <time>2011-04-25T12:34:05Z</time>
      </trkpt>
      <trkpt lat="30.83009" lon="-5.65661">
        <ele>916.231</ele>
        <time>2011-04-25T12:35:17Z</time>
      </trkpt>
      <trkpt lat="30.8318" lon="-5.65572">
        <ele>926.856</ele>
        <time>2011-04-25T12:35:34Z</time>
      </trkpt>
      <trkpt lat="30.83193" lon="-5.65565">
        <ele>926.21</ele>
        <time>2011-04-25T12:35:35Z</time>
      </trkpt>
      <trkpt lat="30.83281" lon="-5.65564">
        <ele>928.93</ele>
        <time>2011-04-25T12:35:41Z</time>
      </trkpt>
      <trkpt lat="30.8339" lon="-5.65611">
        <ele>929.553</ele>
        <time>2011-04-25T12:35:47Z</time>
      </trkpt>
      <trkpt lat="30.83761" lon="-5.65997">
        <ele>931.576</ele>
        <time>2011-04-25T12:36:11Z</time>
      </trkpt>
      <trkpt lat="30.83873" lon="-5.66115">
        <ele>927.982</ele>
        <time>2011-04-25T12:36:18Z</time>
      </trkpt>
      <trkpt lat="30.83894" lon="-5.66137">
        <ele>924.783</ele>
        <time>2011-04-25T12:36:20Z</time>
      </trkpt>
      <trkpt lat="30.84118" lon="-5.66527">
        <ele>924.85</ele>
        <time>2011-04-25T12:36:54Z</time>
      </trkpt>
      <trkpt lat="30.84216" lon="-5.66626">
        <ele>923.869</ele>
        <time>2011-04-25T12:37:02Z</time>
      </trkpt>
      <trkpt lat="30.84633" lon="-5.66934">
        <ele>931.155</ele>
        <time>2011-04-25T12:37:28Z</time>
      </trkpt>
      <trkpt lat="30.84754" lon="-5.6706">
        <ele>932.51</ele>
        <time>2011-04-25T12:37:37Z</time>
      </trkpt>
      <trkpt lat="30.8486" lon="-5.67445">
        <ele>933.553</ele>
        <time>2011-04-25T12:37:55Z</time>
      </trkpt>
      <trkpt lat="30.84924" lon="-5.67585">
        <ele>934.626</ele>
        <time>2011-04-25T12:38:02Z</time>
      </trkpt>
      <trkpt lat="30.85291" lon="-5.68201">
        <ele>937.777</ele>
        <time>2011-04-25T12:38:35Z</time>
      </trkpt>
      <trkpt lat="30.85323" lon="-5.68271">
        <ele>936.216</ele>
        <time>2011-04-25T12:38:39Z</time>
      </trkpt>
      <trkpt lat="30.85322" lon="-5.6838">
        <ele>937.94</ele>
        <time>2011-04-25T12:38:45Z</time>
      </trkpt>
      <trkpt lat="30.85233" lon="-5.68641">
        <ele>941.286</ele>
        <time>2011-04-25T12:38:57Z</time>
      </trkpt>
      <trkpt lat="30.85129" lon="-5.68973">
        <ele>944.235</ele>
        <time>2011-04-25T12:39:12Z</time>
      </trkpt>
      <trkpt lat="30.84843" lon="-5.72788">
        <ele>963.246</ele>
        <time>2011-04-25T12:44:10Z</time>
      </trkpt>
      <trkpt lat="30.85208" lon="-5.74838">
        <ele>975.551</ele>
        <time>2011-04-25T12:45:35Z</time>
      </trkpt>
      <trkpt lat="30.85303" lon="-5.79111">
        <ele>990.422</ele>
        <time>2011-04-25T12:48:13Z</time>
      </trkpt>
      <trkpt lat="30.85711" lon="-5.80854">
        <ele>995.57</ele>
        <time>2011-04-25T12:49:21Z</time>
      </trkpt>
      <trkpt lat="30.85735" lon="-5.81174">
        <ele>994.535</ele>
        <time>2011-04-25T12:49:35Z</time>
      </trkpt>
      <trkpt lat="30.85859" lon="-5.81416">
        <ele>998.151</ele>
        <time>2011-04-25T12:49:48Z</time>
      </trkpt>
      <trkpt lat="30.85935" lon="-5.81546">
        <ele>997.319</ele>
        <time>2011-04-25T12:49:55Z</time>
      </trkpt>
      <trkpt lat="30.85966" lon="-5.81672">
        <ele>995.445</ele>
        <time>2011-04-25T12:50:03Z</time>
      </trkpt>
      <trkpt lat="30.85939" lon="-5.82063">
        <ele>1003.837</ele>
        <time>2011-04-25T12:50:24Z</time>
      </trkpt>
      <trkpt lat="30.85898" lon="-5.8226">
        <ele>1002.983</ele>
        <time>2011-04-25T12:50:33Z</time>
      </trkpt>
      <trkpt lat="30.85977" lon="-5.82553">
        <ele>1004.285</ele>
        <time>2011-04-25T12:50:48Z</time>
      </trkpt>
      <trkpt lat="30.85929" lon="-5.83003">
        <ele>1012.713</ele>
        <time>2011-04-25T12:51:07Z</time>
      </trkpt>
      <trkpt lat="30.85924" lon="-5.8303">
        <ele>1013.011</ele>
        <time>2011-04-25T12:51:08Z</time>
      </trkpt>
      <trkpt lat="30.85901" lon="-5.83305">
        <ele>1012.55</ele>
        <time>2011-04-25T12:51:18Z</time>
      </trkpt>
      <trkpt lat="30.85925" lon="-5.83539">
        <ele>1015.304</ele>
        <time>2011-04-25T12:51:27Z</time>
      </trkpt>
      <trkpt lat="30.86045" lon="-5.8404">
        <ele>1016.411</ele>
        <time>2011-04-25T12:51:48Z</time>
      </trkpt>
      <trkpt lat="30.86075" lon="-5.84334">
        <ele>1016.639</ele>
        <time>2011-04-25T12:52:00Z</time>
      </trkpt>
      <trkpt lat="30.8617" lon="-5.84483">
        <ele>1018.488</ele>
        <time>2011-04-25T12:52:08Z</time>
      </trkpt>
      <trkpt lat="30.86263" lon="-5.84785">
        <ele>1036.177</ele>
        <time>2011-04-25T12:52:22Z</time>
      </trkpt>
      <trkpt lat="30.864" lon="-5.8514">
        <ele>1044.157</ele>
        <time>2011-04-25T12:52:37Z</time>
      </trkpt>
      <trkpt lat="30.86581" lon="-5.85533">
        <ele>1038.683</ele>
        <time>2011-04-25T12:53:07Z</time>
      </trkpt>
      <trkpt lat="30.86639" lon="-5.85736">
        <ele>1040.033</ele>
        <time>2011-04-25T12:53:53Z</time>
      </trkpt>
      <trkpt lat="30.8668" lon="-5.85862">
        <ele>1038.574</ele>
        <time>2011-04-25T12:54:02Z</time>
      </trkpt>
      <trkpt lat="30.86846" lon="-5.86078">
        <ele>1045.182</ele>
        <time>2011-04-25T12:54:26Z</time>
      </trkpt>
      <trkpt lat="30.87125" lon="-5.86376">
        <ele>1065.5</ele>
        <time>2011-04-25T14:05:40Z</time>
      </trkpt>
      <trkpt lat="30.87158" lon="-5.86412">
        <ele>1067.04</ele>
        <time>2011-04-25T14:05:48Z</time>
      </trkpt>
      <trkpt lat="30.87159" lon="-5.86474">
        <ele>1067.911</ele>
        <time>2011-04-25T14:05:55Z</time>
      </trkpt>
      <trkpt lat="30.87131" lon="-5.86493">
        <ele>1068.102</ele>
        <time>2011-04-25T14:05:58Z</time>
      </trkpt>
      <trkpt lat="30.87029" lon="-5.86589">
        <ele>1063.895</ele>
        <time>2011-04-25T14:06:10Z</time>
      </trkpt>
      <trkpt lat="30.86678" lon="-5.87229">
        <ele>1057.63</ele>
        <time>2011-04-25T14:06:55Z</time>
      </trkpt>
      <trkpt lat="30.86545" lon="-5.87416">
        <ele>1059.176</ele>
        <time>2011-04-25T14:07:05Z</time>
      </trkpt>
      <trkpt lat="30.86396" lon="-5.87633">
        <ele>1055.141</ele>
        <time>2011-04-25T14:07:17Z</time>
      </trkpt>
      <trkpt lat="30.86283" lon="-5.8827">
        <ele>1060.204</ele>
        <time>2011-04-25T14:07:45Z</time>
      </trkpt>
      <trkpt lat="30.85848" lon="-5.89586">
        <ele>1071.424</ele>
        <time>2011-04-25T14:08:50Z</time>
      </trkpt>
      <trkpt lat="30.85405" lon="-5.90709">
        <ele>1073.898</ele>
        <time>2011-04-25T14:09:34Z</time>
      </trkpt>
      <trkpt lat="30.85319" lon="-5.91586">
        <ele>1090.204</ele>
        <time>2011-04-25T14:10:09Z</time>
      </trkpt>
      <trkpt lat="30.85176" lon="-5.92163">
        <ele>1099.839</ele>
        <time>2011-04-25T14:10:31Z</time>
      </trkpt>
      <trkpt lat="30.85033" lon="-5.92533">
        <ele>1097.85</ele>
        <time>2011-04-25T14:10:46Z</time>
      </trkpt>
      <trkpt lat="30.84654" lon="-5.93194">
        <ele>1102.593</ele>
        <time>2011-04-25T14:11:13Z</time>
      </trkpt>
      <trkpt lat="30.844" lon="-5.93733">
        <ele>1106.753</ele>
        <time>2011-04-25T14:11:35Z</time>
      </trkpt>
      <trkpt lat="30.84352" lon="-5.93817">
        <ele>1104.317</ele>
        <time>2011-04-25T14:11:39Z</time>
      </trkpt>
      <trkpt lat="30.83979" lon="-5.94072">
        <ele>1112.253</ele>
        <time>2011-04-25T14:11:59Z</time>
      </trkpt>
      <trkpt lat="30.83813" lon="-5.94302">
        <ele>1112.333</ele>
        <time>2011-04-25T14:12:10Z</time>
      </trkpt>
      <trkpt lat="30.83479" lon="-5.94948">
        <ele>1117.429</ele>
        <time>2011-04-25T14:12:36Z</time>
      </trkpt>
      <trkpt lat="30.8324" lon="-5.95548">
        <ele>1123.355</ele>
        <time>2011-04-25T14:12:58Z</time>
      </trkpt>
      <trkpt lat="30.82874" lon="-5.9611">
        <ele>1129.753</ele>
        <time>2011-04-25T14:13:22Z</time>
      </trkpt>
      <trkpt lat="30.82685" lon="-5.96482">
        <ele>1140.562</ele>
        <time>2011-04-25T14:13:37Z</time>
      </trkpt>
      <trkpt lat="30.82331" lon="-5.97148">
        <ele>1141.934</ele>
        <time>2011-04-25T14:14:05Z</time>
      </trkpt>
      <trkpt lat="30.81624" lon="-5.97841">
        <ele>1150.292</ele>
        <time>2011-04-25T14:14:42Z</time>
      </trkpt>
      <trkpt lat="30.81492" lon="-5.9797">
        <ele>1150.692</ele>
        <time>2011-04-25T14:14:49Z</time>
      </trkpt>
      <trkpt lat="30.80351" lon="-5.99095">
        <ele>1145.372</ele>
        <time>2011-04-25T14:15:48Z</time>
      </trkpt>
      <trkpt lat="30.79646" lon="-6.00037">
        <ele>1150.612</ele>
        <time>2011-04-25T14:16:31Z</time>
      </trkpt>
      <trkpt lat="30.79453" lon="-6.00297">
        <ele>1147.805</ele>
        <time>2011-04-25T14:16:42Z</time>
      </trkpt>
      <trkpt lat="30.78926" lon="-6.01069">
        <ele>1137.992</ele>
        <time>2011-04-25T14:17:15Z</time>
      </trkpt>
      <trkpt lat="30.78037" lon="-6.02473">
        <ele>1115.832</ele>
        <time>2011-04-25T14:18:15Z</time>
      </trkpt>
      <trkpt lat="30.77272" lon="-6.03628">
        <ele>1106.411</ele>
        <time>2011-04-25T14:19:05Z</time>
      </trkpt>
      <trkpt lat="30.75609" lon="-6.06188">
        <ele>1062.291</ele>
        <time>2011-04-25T14:20:56Z</time>
      </trkpt>
      <trkpt lat="30.75018" lon="-6.07551">
        <ele>1043.021</ele>
        <time>2011-04-25T14:21:48Z</time>
      </trkpt>
      <trkpt lat="30.74782" lon="-6.08453">
        <ele>1032.338</ele>
        <time>2011-04-25T14:22:20Z</time>
      </trkpt>
      <trkpt lat="30.74733" lon="-6.08586">
        <ele>1026.284</ele>
        <time>2011-04-25T14:22:25Z</time>
      </trkpt>
      <trkpt lat="30.7469" lon="-6.08847">
        <ele>1022.862</ele>
        <time>2011-04-25T14:22:34Z</time>
      </trkpt>
      <trkpt lat="30.7466" lon="-6.09005">
        <ele>1016.414</ele>
        <time>2011-04-25T14:22:41Z</time>
      </trkpt>
      <trkpt lat="30.74547" lon="-6.09302">
        <ele>1018.717</ele>
        <time>2011-04-25T14:22:53Z</time>
      </trkpt>
      <trkpt lat="30.74239" lon="-6.1043">
        <ele>998.624</ele>
        <time>2011-04-25T14:23:34Z</time>
      </trkpt>
      <trkpt lat="30.74227" lon="-6.10477">
        <ele>994.937</ele>
        <time>2011-04-25T14:23:36Z</time>
      </trkpt>
      <trkpt lat="30.74219" lon="-6.10794">
        <ele>990.644</ele>
        <time>2011-04-25T14:23:50Z</time>
      </trkpt>
      <trkpt lat="30.74134" lon="-6.10993">
        <ele>995.246</ele>
        <time>2011-04-25T14:23:59Z</time>
      </trkpt>
      <trkpt lat="30.74024" lon="-6.11169">
        <ele>992.209</ele>
        <time>2011-04-25T14:24:07Z</time>
      </trkpt>
      <trkpt lat="30.73933" lon="-6.1134">
        <ele>987.894</ele>
        <time>2011-04-25T14:24:14Z</time>
      </trkpt>
      <trkpt lat="30.73882" lon="-6.11507">
        <ele>983.753</ele>
        <time>2011-04-25T14:24:20Z</time>
      </trkpt>
      <trkpt lat="30.73852" lon="-6.11708">
        <ele>981.112</ele>
        <time>2011-04-25T14:24:27Z</time>
      </trkpt>
      <trkpt lat="30.73839" lon="-6.12322">
        <ele>974.516</ele>
        <time>2011-04-25T14:24:48Z</time>
      </trkpt>
      <trkpt lat="30.73794" lon="-6.12445">
        <ele>975.336</ele>
        <time>2011-04-25T14:24:53Z</time>
      </trkpt>
      <trkpt lat="30.73574" lon="-6.12834">
        <ele>968.263</ele>
        <time>2011-04-25T14:25:09Z</time>
      </trkpt>
      <trkpt lat="30.73348" lon="-6.13324">
        <ele>958.642</ele>
        <time>2011-04-25T14:25:28Z</time>
      </trkpt>
      <trkpt lat="30.73261" lon="-6.1347">
        <ele>953.22</ele>
        <time>2011-04-25T14:25:34Z</time>
      </trkpt>
      <trkpt lat="30.72857" lon="-6.13923">
        <ele>951.926</ele>
        <time>2011-04-25T14:25:56Z</time>
      </trkpt>
      <trkpt lat="30.72378" lon="-6.14849">
        <ele>930.182</ele>
        <time>2011-04-25T14:26:33Z</time>
      </trkpt>
      <trkpt lat="30.72179" lon="-6.15143">
        <ele>927.912</ele>
        <time>2011-04-25T14:26:46Z</time>
      </trkpt>
      <trkpt lat="30.7218" lon="-6.15234">
        <ele>924.221</ele>
        <time>2011-04-25T14:26:48Z</time>
      </trkpt>
      <trkpt lat="30.7189" lon="-6.15782">
        <ele>925.035</ele>
        <time>2011-04-25T14:27:10Z</time>
      </trkpt>
      <trkpt lat="30.71166" lon="-6.16849">
        <ele>916.566</ele>
        <time>2011-04-25T14:27:56Z</time>
      </trkpt>
      <trkpt lat="30.70707" lon="-6.17727">
        <ele>923.892</ele>
        <time>2011-04-25T14:28:33Z</time>
      </trkpt>
      <trkpt lat="30.70293" lon="-6.18341">
        <ele>915.93</ele>
        <time>2011-04-25T14:29:02Z</time>
      </trkpt>
      <trkpt lat="30.70187" lon="-6.18464">
        <ele>920.068</ele>
        <time>2011-04-25T14:29:08Z</time>
      </trkpt>
      <trkpt lat="30.69227" lon="-6.19226">
        <ele>898.359</ele>
        <time>2011-04-25T14:29:56Z</time>
      </trkpt>
      <trkpt lat="30.69177" lon="-6.1928">
        <ele>895.729</ele>
        <time>2011-04-25T14:29:59Z</time>
      </trkpt>
      <trkpt lat="30.69113" lon="-6.19291">
        <ele>893.269</ele>
        <time>2011-04-25T14:30:01Z</time>
      </trkpt>
      <trkpt lat="30.6909" lon="-6.19331">
        <ele>886.349</ele>
        <time>2011-04-25T14:30:05Z</time>
      </trkpt>
      <trkpt lat="30.68988" lon="-6.19344">
        <ele>883.884</ele>
        <time>2011-04-25T14:30:13Z</time>
      </trkpt>
      <trkpt lat="30.68454" lon="-6.19146">
        <ele>877.917</ele>
        <time>2011-04-25T14:30:57Z</time>
      </trkpt>
      <trkpt lat="30.68436" lon="-6.18964">
        <ele>882.069</ele>
        <time>2011-04-25T14:31:13Z</time>
      </trkpt>
      <trkpt lat="30.68461" lon="-6.18826">
        <ele>884.674</ele>
        <time>2011-04-25T14:31:20Z</time>
      </trkpt>
      <trkpt lat="30.68475" lon="-6.18244">
        <ele>880.136</ele>
        <time>2011-04-25T14:31:50Z</time>
      </trkpt>
      <trkpt lat="30.68422" lon="-6.17716">
        <ele>883.815</ele>
        <time>2011-04-25T14:32:19Z</time>
      </trkpt>
      <trkpt lat="30.68356" lon="-6.17517">
        <ele>886.567</ele>
        <time>2011-04-25T14:32:31Z</time>
      </trkpt>
      <trkpt lat="30.68185" lon="-6.17255">
        <ele>884.933</ele>
        <time>2011-04-25T14:32:53Z</time>
      </trkpt>
      <trkpt lat="30.6808" lon="-6.1693">
        <ele>878.274</ele>
        <time>2011-04-25T14:33:16Z</time>
      </trkpt>
      <trkpt lat="30.6789" lon="-6.16711">
        <ele>882.641</ele>
        <time>2011-04-25T14:33:33Z</time>
      </trkpt>
      <trkpt lat="30.67761" lon="-6.16448">
        <ele>880.053</ele>
        <time>2011-04-25T14:33:48Z</time>
      </trkpt>
      <trkpt lat="30.67673" lon="-6.16149">
        <ele>882.217</ele>
        <time>2011-04-25T14:34:09Z</time>
      </trkpt>
      <trkpt lat="30.67698" lon="-6.1602">
        <ele>891.9</ele>
        <time>2011-04-25T14:34:20Z</time>
      </trkpt>
      <trkpt lat="30.67677" lon="-6.15918">
        <ele>892.861</ele>
        <time>2011-04-25T14:34:29Z</time>
      </trkpt>
      <trkpt lat="30.6763" lon="-6.15851">
        <ele>890.623</ele>
        <time>2011-04-25T14:34:37Z</time>
      </trkpt>
      <trkpt lat="30.67521" lon="-6.15819">
        <ele>891.334</ele>
        <time>2011-04-25T14:34:50Z</time>
      </trkpt>
      <trkpt lat="30.67499" lon="-6.15748">
        <ele>893.221</ele>
        <time>2011-04-25T14:34:56Z</time>
      </trkpt>
      <trkpt lat="30.67503" lon="-6.15624">
        <ele>894.634</ele>
        <time>2011-04-25T14:35:04Z</time>
      </trkpt>
      <trkpt lat="30.67561" lon="-6.15556">
        <ele>897.858</ele>
        <time>2011-04-25T14:35:11Z</time>
      </trkpt>
      <trkpt lat="30.67557" lon="-6.15501">
        <ele>902.568</ele>
        <time>2011-04-25T14:35:15Z</time>
      </trkpt>
      <trkpt lat="30.67542" lon="-6.15417">
        <ele>905.144</ele>
        <time>2011-04-25T14:35:20Z</time>
      </trkpt>
      <trkpt lat="30.67473" lon="-6.153">
        <ele>897.8</ele>
        <time>2011-04-25T14:35:30Z</time>
      </trkpt>
      <trkpt lat="30.67454" lon="-6.15158">
        <ele>897.486</ele>
        <time>2011-04-25T14:35:41Z</time>
      </trkpt>
      <trkpt lat="30.67344" lon="-6.14963">
        <ele>898.116</ele>
        <time>2011-04-25T14:35:56Z</time>
      </trkpt>
      <trkpt lat="30.67287" lon="-6.14848">
        <ele>894.513</ele>
        <time>2011-04-25T14:36:05Z</time>
      </trkpt>
      <trkpt lat="30.67196" lon="-6.14612">
        <ele>880.57</ele>
        <time>2011-04-25T14:36:21Z</time>
      </trkpt>
      <trkpt lat="30.66853" lon="-6.1438">
        <ele>877.495</ele>
        <time>2011-04-25T14:36:55Z</time>
      </trkpt>
      <trkpt lat="30.66766" lon="-6.14243">
        <ele>870.807</ele>
        <time>2011-04-25T14:37:07Z</time>
      </trkpt>
      <trkpt lat="30.66691" lon="-6.14193">
        <ele>870.409</ele>
        <time>2011-04-25T14:37:14Z</time>
      </trkpt>
      <trkpt lat="30.66358" lon="-6.14244">
        <ele>866.817</ele>
        <time>2011-04-25T14:37:37Z</time>
      </trkpt>
      <trkpt lat="30.66059" lon="-6.14398">
        <ele>865.669</ele>
        <time>2011-04-25T14:37:58Z</time>
      </trkpt>
      <trkpt lat="30.65658" lon="-6.14408">
        <ele>864.155</ele>
        <time>2011-04-25T14:38:23Z</time>
      </trkpt>
      <trkpt lat="30.6543" lon="-6.14494">
        <ele>867.617</ele>
        <time>2011-04-25T14:38:44Z</time>
      </trkpt>
      <trkpt lat="30.65195" lon="-6.14484">
        <ele>876.869</ele>
        <time>2011-04-25T14:39:03Z</time>
      </trkpt>
      <trkpt lat="30.65118" lon="-6.14492">
        <ele>876.546</ele>
        <time>2011-04-25T14:39:08Z</time>
      </trkpt>
      <trkpt lat="30.64839" lon="-6.14655">
        <ele>885.421</ele>
        <time>2011-04-25T14:39:30Z</time>
      </trkpt>
      <trkpt lat="30.64824" lon="-6.14667">
        <ele>885.414</ele>
        <time>2011-04-25T14:39:31Z</time>
      </trkpt>
      <trkpt lat="30.64265" lon="-6.15246">
        <ele>865.587</ele>
        <time>2011-04-25T14:40:19Z</time>
      </trkpt>
      <trkpt lat="30.63816" lon="-6.15586">
        <ele>860.188</ele>
        <time>2011-04-25T14:40:55Z</time>
      </trkpt>
      <trkpt lat="30.63534" lon="-6.15755">
        <ele>860.525</ele>
        <time>2011-04-25T14:41:18Z</time>
      </trkpt>
      <trkpt lat="30.63343" lon="-6.15989">
        <ele>861.733</ele>
        <time>2011-04-25T14:41:36Z</time>
      </trkpt>
      <trkpt lat="30.63177" lon="-6.16068">
        <ele>865.329</ele>
        <time>2011-04-25T14:41:48Z</time>
      </trkpt>
      <trkpt lat="30.62825" lon="-6.1637">
        <ele>871.006</ele>
        <time>2011-04-25T14:43:26Z</time>
      </trkpt>
      <trkpt lat="30.62613" lon="-6.16519">
        <ele>861.949</ele>
        <time>2011-04-25T14:43:37Z</time>
      </trkpt>
      <trkpt lat="30.62307" lon="-6.16546">
        <ele>870.452</ele>
        <time>2011-04-25T14:43:49Z</time>
      </trkpt>
      <trkpt lat="30.61741" lon="-6.16572">
        <ele>856.099</ele>
        <time>2011-04-25T14:44:22Z</time>
      </trkpt>
      <trkpt lat="30.60541" lon="-6.16732">
        <ele>854.018</ele>
        <time>2011-04-25T14:45:33Z</time>
      </trkpt>
      <trkpt lat="30.6007" lon="-6.16639">
        <ele>857.733</ele>
        <time>2011-04-25T14:46:04Z</time>
      </trkpt>
      <trkpt lat="30.59777" lon="-6.16586">
        <ele>851.328</ele>
        <time>2011-04-25T14:46:21Z</time>
      </trkpt>
      <trkpt lat="30.59483" lon="-6.16423">
        <ele>851.359</ele>
        <time>2011-04-25T14:46:43Z</time>
      </trkpt>
      <trkpt lat="30.59296" lon="-6.16105">
        <ele>849.679</ele>
        <time>2011-04-25T14:47:07Z</time>
      </trkpt>
      <trkpt lat="30.59201" lon="-6.15721">
        <ele>852.977</ele>
        <time>2011-04-25T14:47:32Z</time>
      </trkpt>
      <trkpt lat="30.59121" lon="-6.15629">
        <ele>853.116</ele>
        <time>2011-04-25T14:47:40Z</time>
      </trkpt>
      <trkpt lat="30.58954" lon="-6.15511">
        <ele>849.078</ele>
        <time>2011-04-25T14:47:55Z</time>
      </trkpt>
      <trkpt lat="30.58612" lon="-6.15413">
        <ele>846.887</ele>
        <time>2011-04-25T14:48:25Z</time>
      </trkpt>
      <trkpt lat="30.58204" lon="-6.15219">
        <ele>855.564</ele>
        <time>2011-04-25T14:49:02Z</time>
      </trkpt>
      <trkpt lat="30.57823" lon="-6.15026">
        <ele>857.899</ele>
        <time>2011-04-25T14:49:40Z</time>
      </trkpt>
      <trkpt lat="30.56882" lon="-6.14297">
        <ele>843.953</ele>
        <time>2011-04-25T14:50:49Z</time>
      </trkpt>
      <trkpt lat="30.56701" lon="-6.14115">
        <ele>845.755</ele>
        <time>2011-04-25T14:51:01Z</time>
      </trkpt>
      <trkpt lat="30.56547" lon="-6.13915">
        <ele>850.127</ele>
        <time>2011-04-25T14:51:12Z</time>
      </trkpt>
      <trkpt lat="30.56188" lon="-6.13396">
        <ele>840.104</ele>
        <time>2011-04-25T14:51:42Z</time>
      </trkpt>
      <trkpt lat="30.56064" lon="-6.1326">
        <ele>835.356</ele>
        <time>2011-04-25T14:51:54Z</time>
      </trkpt>
      <trkpt lat="30.55853" lon="-6.13112">
        <ele>834.144</ele>
        <time>2011-04-25T14:52:09Z</time>
      </trkpt>
      <trkpt lat="30.55712" lon="-6.12977">
        <ele>834.754</ele>
        <time>2011-04-25T14:52:19Z</time>
      </trkpt>
      <trkpt lat="30.55511" lon="-6.12786">
        <ele>833.616</ele>
        <time>2011-04-25T14:52:33Z</time>
      </trkpt>
      <trkpt lat="30.55378" lon="-6.12715">
        <ele>835.053</ele>
        <time>2011-04-25T14:52:41Z</time>
      </trkpt>
      <trkpt lat="30.55361" lon="-6.12707">
        <ele>835.044</ele>
        <time>2011-04-25T14:52:42Z</time>
      </trkpt>
      <trkpt lat="30.54657" lon="-6.12309">
        <ele>833.335</ele>
        <time>2011-04-25T14:53:28Z</time>
      </trkpt>
      <trkpt lat="30.54247" lon="-6.12049">
        <ele>831.796</ele>
        <time>2011-04-25T14:53:52Z</time>
      </trkpt>
      <trkpt lat="30.5376" lon="-6.11478">
        <ele>829.024</ele>
        <time>2011-04-25T14:54:28Z</time>
      </trkpt>
      <trkpt lat="30.53335" lon="-6.11179">
        <ele>824.305</ele>
        <time>2011-04-25T14:54:54Z</time>
      </trkpt>
      <trkpt lat="30.53001" lon="-6.10864">
        <ele>825.246</ele>
        <time>2011-04-25T14:55:19Z</time>
      </trkpt>
      <trkpt lat="30.52962" lon="-6.10826">
        <ele>823.101</ele>
        <time>2011-04-25T14:55:22Z</time>
      </trkpt>
      <trkpt lat="30.52452" lon="-6.10629">
        <ele>832.892</ele>
        <time>2011-04-25T14:55:54Z</time>
      </trkpt>
      <trkpt lat="30.51937" lon="-6.10444">
        <ele>827.872</ele>
        <time>2011-04-25T14:56:26Z</time>
      </trkpt>
      <trkpt lat="30.51673" lon="-6.10357">
        <ele>819.776</ele>
        <time>2011-04-25T14:56:45Z</time>
      </trkpt>
      <trkpt lat="30.51225" lon="-6.10323">
        <ele>821.438</ele>
        <time>2011-04-25T14:57:19Z</time>
      </trkpt>
      <trkpt lat="30.50694" lon="-6.10167">
        <ele>815.751</ele>
        <time>2011-04-25T14:57:58Z</time>
      </trkpt>
      <trkpt lat="30.50417" lon="-6.10212">
        <ele>818.066</ele>
        <time>2011-04-25T14:58:20Z</time>
      </trkpt>
      <trkpt lat="30.50159" lon="-6.10212">
        <ele>820.396</ele>
        <time>2011-04-25T14:58:39Z</time>
      </trkpt>
      <trkpt lat="30.49904" lon="-6.10076">
        <ele>820.511</ele>
        <time>2011-04-25T14:58:56Z</time>
      </trkpt>
      <trkpt lat="30.49759" lon="-6.09937">
        <ele>819.659</ele>
        <time>2011-04-25T14:59:07Z</time>
      </trkpt>
      <trkpt lat="30.49673" lon="-6.09633">
        <ele>817.385</ele>
        <time>2011-04-25T14:59:24Z</time>
      </trkpt>
      <trkpt lat="30.49349" lon="-6.09274">
        <ele>819.887</ele>
        <time>2011-04-25T14:59:48Z</time>
      </trkpt>
      <trkpt lat="30.49032" lon="-6.08943">
        <ele>815.094</ele>
        <time>2011-04-25T15:00:08Z</time>
      </trkpt>
      <trkpt lat="30.48699" lon="-6.08553">
        <ele>813.658</ele>
        <time>2011-04-25T15:00:36Z</time>
      </trkpt>
      <trkpt lat="30.48489" lon="-6.0836">
        <ele>814.247</ele>
        <time>2011-04-25T15:00:52Z</time>
      </trkpt>
      <trkpt lat="30.4837" lon="-6.08295">
        <ele>817.431</ele>
        <time>2011-04-25T15:00:59Z</time>
      </trkpt>
      <trkpt lat="30.48189" lon="-6.08219">
        <ele>818.724</ele>
        <time>2011-04-25T15:01:09Z</time>
      </trkpt>
      <trkpt lat="30.48097" lon="-6.08124">
        <ele>820.172</ele>
        <time>2011-04-25T15:01:15Z</time>
      </trkpt>
      <trkpt lat="30.47532" lon="-6.07264">
        <ele>811.77</ele>
        <time>2011-04-25T15:02:00Z</time>
      </trkpt>
      <trkpt lat="30.47459" lon="-6.0713">
        <ele>813.814</ele>
        <time>2011-04-25T15:02:07Z</time>
      </trkpt>
      <trkpt lat="30.4742" lon="-6.06948">
        <ele>813.038</ele>
        <time>2011-04-25T15:02:15Z</time>
      </trkpt>
      <trkpt lat="30.4741" lon="-6.06345">
        <ele>813.583</ele>
        <time>2011-04-25T15:02:42Z</time>
      </trkpt>
      <trkpt lat="30.47413" lon="-6.062">
        <ele>809.475</ele>
        <time>2011-04-25T15:02:49Z</time>
      </trkpt>
      <trkpt lat="30.47539" lon="-6.05951">
        <ele>806.726</ele>
        <time>2011-04-25T15:03:02Z</time>
      </trkpt>
      <trkpt lat="30.47688" lon="-6.05815">
        <ele>811.251</ele>
        <time>2011-04-25T15:03:12Z</time>
      </trkpt>
      <trkpt lat="30.47787" lon="-6.05712">
        <ele>810.161</ele>
        <time>2011-04-25T15:03:20Z</time>
      </trkpt>
      <trkpt lat="30.47862" lon="-6.05484">
        <ele>806.284</ele>
        <time>2011-04-25T15:03:35Z</time>
      </trkpt>
      <trkpt lat="30.47816" lon="-6.04993">
        <ele>806.608</ele>
        <time>2011-04-25T15:04:05Z</time>
      </trkpt>
      <trkpt lat="30.47696" lon="-6.04613">
        <ele>803.145</ele>
        <time>2011-04-25T15:04:23Z</time>
      </trkpt>
      <trkpt lat="30.47682" lon="-6.04384">
        <ele>811.668</ele>
        <time>2011-04-25T15:04:32Z</time>
      </trkpt>
      <trkpt lat="30.47645" lon="-6.04051">
        <ele>807.314</ele>
        <time>2011-04-25T15:04:47Z</time>
      </trkpt>
      <trkpt lat="30.47251" lon="-6.03605">
        <ele>806.811</ele>
        <time>2011-04-25T15:05:14Z</time>
      </trkpt>
      <trkpt lat="30.47097" lon="-6.03388">
        <ele>805.991</ele>
        <time>2011-04-25T15:05:26Z</time>
      </trkpt>
      <trkpt lat="30.46888" lon="-6.03057">
        <ele>798.528</ele>
        <time>2011-04-25T15:05:46Z</time>
      </trkpt>
      <trkpt lat="30.46593" lon="-6.02875">
        <ele>801.151</ele>
        <time>2011-04-25T15:06:06Z</time>
      </trkpt>
      <trkpt lat="30.46327" lon="-6.02464">
        <ele>798.944</ele>
        <time>2011-04-25T15:06:30Z</time>
      </trkpt>
      <trkpt lat="30.46031" lon="-6.0218">
        <ele>798.708</ele>
        <time>2011-04-25T15:06:51Z</time>
      </trkpt>
      <trkpt lat="30.45919" lon="-6.01961">
        <ele>798.393</ele>
        <time>2011-04-25T15:07:02Z</time>
      </trkpt>
      <trkpt lat="30.45847" lon="-6.01583">
        <ele>799.743</ele>
        <time>2011-04-25T15:07:19Z</time>
      </trkpt>
      <trkpt lat="30.45778" lon="-6.01192">
        <ele>793.806</ele>
        <time>2011-04-25T15:07:36Z</time>
      </trkpt>
      <trkpt lat="30.45558" lon="-6.00545">
        <ele>792.084</ele>
        <time>2011-04-25T15:08:06Z</time>
      </trkpt>
      <trkpt lat="30.45493" lon="-6.0039">
        <ele>791.865</ele>
        <time>2011-04-25T15:08:13Z</time>
      </trkpt>
      <trkpt lat="30.45299" lon="-6.00104">
        <ele>789.991</ele>
        <time>2011-04-25T15:08:29Z</time>
      </trkpt>
      <trkpt lat="30.44749" lon="-5.98998">
        <ele>794.706</ele>
        <time>2011-04-25T15:09:25Z</time>
      </trkpt>
      <trkpt lat="30.44667" lon="-5.98772">
        <ele>794.712</ele>
        <time>2011-04-25T15:09:34Z</time>
      </trkpt>
      <trkpt lat="30.44555" lon="-5.98376">
        <ele>788.366</ele>
        <time>2011-04-25T15:09:50Z</time>
      </trkpt>
      <trkpt lat="30.44463" lon="-5.97795">
        <ele>783.445</ele>
        <time>2011-04-25T15:10:13Z</time>
      </trkpt>
      <trkpt lat="30.44459" lon="-5.97521">
        <ele>780.877</ele>
        <time>2011-04-25T15:10:24Z</time>
      </trkpt>
      <trkpt lat="30.44582" lon="-5.97191">
        <ele>780.849</ele>
        <time>2011-04-25T15:10:41Z</time>
      </trkpt>
      <trkpt lat="30.44778" lon="-5.96768">
        <ele>779.643</ele>
        <time>2011-04-25T15:11:02Z</time>
      </trkpt>
      <trkpt lat="30.44947" lon="-5.96479">
        <ele>777.336</ele>
        <time>2011-04-25T15:11:17Z</time>
      </trkpt>
      <trkpt lat="30.45161" lon="-5.9622">
        <ele>778.026</ele>
        <time>2011-04-25T15:11:34Z</time>
      </trkpt>
      <trkpt lat="30.45205" lon="-5.95987">
        <ele>777.21</ele>
        <time>2011-04-25T15:11:45Z</time>
      </trkpt>
      <trkpt lat="30.45219" lon="-5.95658">
        <ele>782.003</ele>
        <time>2011-04-25T15:12:00Z</time>
      </trkpt>
      <trkpt lat="30.45193" lon="-5.9553">
        <ele>780.92</ele>
        <time>2011-04-25T15:12:06Z</time>
      </trkpt>
      <trkpt lat="30.44768" lon="-5.94988">
        <ele>788.739</ele>
        <time>2011-04-25T15:12:37Z</time>
      </trkpt>
      <trkpt lat="30.44226" lon="-5.94313">
        <ele>786.426</ele>
        <time>2011-04-25T15:13:16Z</time>
      </trkpt>
      <trkpt lat="30.43353" lon="-5.9313">
        <ele>779.249</ele>
        <time>2011-04-25T15:14:17Z</time>
      </trkpt>
      <trkpt lat="30.42646" lon="-5.92348">
        <ele>776.066</ele>
        <time>2011-04-25T15:15:00Z</time>
      </trkpt>
      <trkpt lat="30.42526" lon="-5.9219">
        <ele>777.858</ele>
        <time>2011-04-25T15:15:08Z</time>
      </trkpt>
      <trkpt lat="30.42412" lon="-5.91923">
        <ele>771.511</ele>
        <time>2011-04-25T15:15:19Z</time>
      </trkpt>
      <trkpt lat="30.42357" lon="-5.91309">
        <ele>770.994</ele>
        <time>2011-04-25T15:15:42Z</time>
      </trkpt>
      <trkpt lat="30.42332" lon="-5.91137">
        <ele>769.511</ele>
        <time>2011-04-25T15:15:49Z</time>
      </trkpt>
      <trkpt lat="30.42267" lon="-5.90904">
        <ele>765.736</ele>
        <time>2011-04-25T15:15:59Z</time>
      </trkpt>
      <trkpt lat="30.41962" lon="-5.90399">
        <ele>766.198</ele>
        <time>2011-04-25T15:16:26Z</time>
      </trkpt>
      <trkpt lat="30.41722" lon="-5.89871">
        <ele>772.376</ele>
        <time>2011-04-25T15:16:54Z</time>
      </trkpt>
      <trkpt lat="30.41688" lon="-5.89741">
        <ele>769.523</ele>
        <time>2011-04-25T15:17:01Z</time>
      </trkpt>
      <trkpt lat="30.41666" lon="-5.89413">
        <ele>765.086</ele>
        <time>2011-04-25T15:17:17Z</time>
      </trkpt>
      <trkpt lat="30.41618" lon="-5.89267">
        <ele>761.622</ele>
        <time>2011-04-25T15:17:24Z</time>
      </trkpt>
      <trkpt lat="30.41054" lon="-5.88004">
        <ele>762.841</ele>
        <time>2011-04-25T15:18:28Z</time>
      </trkpt>
      <trkpt lat="30.41003" lon="-5.87843">
        <ele>764.102</ele>
        <time>2011-04-25T15:18:35Z</time>
      </trkpt>
      <trkpt lat="30.40937" lon="-5.87668">
        <ele>762.676</ele>
        <time>2011-04-25T15:18:43Z</time>
      </trkpt>
      <trkpt lat="30.40756" lon="-5.87341">
        <ele>759.604</ele>
        <time>2011-04-25T15:19:02Z</time>
      </trkpt>
      <trkpt lat="30.40608" lon="-5.86994">
        <ele>762.97</ele>
        <time>2011-04-25T15:19:21Z</time>
      </trkpt>
      <trkpt lat="30.40597" lon="-5.86979">
        <ele>762.968</ele>
        <time>2011-04-25T15:19:22Z</time>
      </trkpt>
      <trkpt lat="30.403" lon="-5.86767">
        <ele>779.847</ele>
        <time>2011-04-25T15:19:42Z</time>
      </trkpt>
      <trkpt lat="30.40095" lon="-5.86682">
        <ele>781.359</ele>
        <time>2011-04-25T15:19:54Z</time>
      </trkpt>
      <trkpt lat="30.4002" lon="-5.86563">
        <ele>786.166</ele>
        <time>2011-04-25T15:20:01Z</time>
      </trkpt>
      <trkpt lat="30.39894" lon="-5.86369">
        <ele>782.415</ele>
        <time>2011-04-25T15:20:13Z</time>
      </trkpt>
      <trkpt lat="30.39867" lon="-5.86342">
        <ele>780.695</ele>
        <time>2011-04-25T15:20:15Z</time>
      </trkpt>
      <trkpt lat="30.39775" lon="-5.86251">
        <ele>768.035</ele>
        <time>2011-04-25T15:20:39Z</time>
      </trkpt>
      <trkpt lat="30.39787" lon="-5.86234">
        <ele>768.844</ele>
        <time>2011-04-25T15:27:53Z</time>
      </trkpt>
      <trkpt lat="30.3962" lon="-5.8611">
        <ele>769.933</ele>
        <time>2011-04-25T15:28:19Z</time>
      </trkpt>
      <trkpt lat="30.38556" lon="-5.85222">
        <ele>751.538</ele>
        <time>2011-04-25T15:29:31Z</time>
      </trkpt>
      <trkpt lat="30.37798" lon="-5.84541">
        <ele>747.967</ele>
        <time>2011-04-25T15:30:20Z</time>
      </trkpt>
      <trkpt lat="30.36753" lon="-5.84338">
        <ele>742.524</ele>
        <time>2011-04-25T15:31:23Z</time>
      </trkpt>
      <trkpt lat="30.35905" lon="-5.84318">
        <ele>747.531</ele>
        <time>2011-04-25T15:32:26Z</time>
      </trkpt>
      <trkpt lat="30.35789" lon="-5.84272">
        <ele>746.941</ele>
        <time>2011-04-25T15:32:35Z</time>
      </trkpt>
      <trkpt lat="30.35469" lon="-5.84047">
        <ele>737.174</ele>
        <time>2011-04-25T15:33:02Z</time>
      </trkpt>
      <trkpt lat="30.35403" lon="-5.8403">
        <ele>735.46</ele>
        <time>2011-04-25T15:33:23Z</time>
      </trkpt>
      <trkpt lat="30.35396" lon="-5.84055">
        <ele>732.356</ele>
        <time>2011-04-25T15:38:54Z</time>
      </trkpt>
      <trkpt lat="30.35385" lon="-5.84026">
        <ele>724.562</ele>
        <time>2011-04-25T15:39:10Z</time>
      </trkpt>
      <trkpt lat="30.34472" lon="-5.83794">
        <ele>725.46</ele>
        <time>2011-04-25T15:40:35Z</time>
      </trkpt>
      <trkpt lat="30.33389" lon="-5.83728">
        <ele>728.909</ele>
        <time>2011-04-25T15:42:36Z</time>
      </trkpt>
      <trkpt lat="30.33361" lon="-5.83733">
        <ele>728.944</ele>
        <time>2011-04-25T15:42:56Z</time>
      </trkpt>
      <trkpt lat="30.33808" lon="-5.8374">
        <ele>729.425</ele>
        <time>2011-04-25T15:43:39Z</time>
      </trkpt>
      <trkpt lat="30.34065" lon="-5.83757">
        <ele>723.466</ele>
        <time>2011-04-25T15:44:03Z</time>
      </trkpt>
      <trkpt lat="30.3406" lon="-5.83718">
        <ele>723.448</ele>
        <time>2011-04-25T15:44:11Z</time>
      </trkpt>
      <trkpt lat="30.34029" lon="-5.83709">
        <ele>724.306</ele>
        <time>2011-04-25T15:44:16Z</time>
      </trkpt>
      <trkpt lat="30.3398" lon="-5.83697">
        <ele>722.957</ele>
        <time>2011-04-25T15:55:09Z</time>
      </trkpt>
      <trkpt lat="30.34061" lon="-5.83721">
        <ele>728.43</ele>
        <time>2011-04-25T15:55:40Z</time>
      </trkpt>
      <trkpt lat="30.34059" lon="-5.83747">
        <ele>730.06</ele>
        <time>2011-04-25T15:55:50Z</time>
      </trkpt>
      <trkpt lat="30.34022" lon="-5.83755">
        <ele>733.214</ele>
        <time>2011-04-25T15:55:56Z</time>
      </trkpt>
      <trkpt lat="30.3401" lon="-5.83754">
        <ele>733.312</ele>
        <time>2011-04-25T15:55:57Z</time>
      </trkpt>
      <trkpt lat="30.33434" lon="-5.8372">
        <ele>738.031</ele>
        <time>2011-04-25T15:56:48Z</time>
      </trkpt>
      <trkpt lat="30.32718" lon="-5.83871">
        <ele>740.745</ele>
        <time>2011-04-25T15:58:16Z</time>
      </trkpt>
      <trkpt lat="30.32504" lon="-5.83969">
        <ele>739.93</ele>
        <time>2011-04-25T15:58:36Z</time>
      </trkpt>
      <trkpt lat="30.32317" lon="-5.84041">
        <ele>734.539</ele>
        <time>2011-04-25T15:58:57Z</time>
      </trkpt>
      <trkpt lat="30.32121" lon="-5.84011">
        <ele>724.375</ele>
        <time>2011-04-25T15:59:15Z</time>
      </trkpt>
      <trkpt lat="30.32078" lon="-5.83991">
        <ele>722.697</ele>
        <time>2011-04-25T15:59:21Z</time>
      </trkpt>
      <trkpt lat="30.32045" lon="-5.83937">
        <ele>721.181</ele>
        <time>2011-04-25T15:59:32Z</time>
      </trkpt>
      <trkpt lat="30.32117" lon="-5.84011">
        <ele>722.15</ele>
        <time>2011-04-25T15:59:54Z</time>
      </trkpt>
      <trkpt lat="30.32212" lon="-5.8401">
        <ele>724.844</ele>
        <time>2011-04-25T16:00:26Z</time>
      </trkpt>
      <trkpt lat="30.32223" lon="-5.83938">
        <ele>728.295</ele>
        <time>2011-04-25T18:09:08Z</time>
      </trkpt>
      <trkpt lat="30.32192" lon="-5.83927">
        <ele>726.511</ele>
        <time>2011-04-25T18:09:35Z</time>
      </trkpt>
      <trkpt lat="30.32199" lon="-5.83913">
        <ele>728.826</ele>
        <time>2011-04-25T18:13:39Z</time>
      </trkpt>
      <trkpt lat="30.32212" lon="-5.83919">
        <ele>728.31</ele>
        <time>2011-04-25T18:48:32Z</time>
      </trkpt>
      <trkpt lat="30.32209" lon="-5.8392">
        <ele>727.277</ele>
        <time>2011-04-25T18:56:46Z</time>
      </trkpt>
    </trkseg>
  </trk>
</gpx>